CPA163 VHHH-YMML
Flight info
| Callsign | CPA163 |
|---|---|
| Flight time | 8h 3m |
| Altitude | 33000 |
| Route | N0495F330 DALOL V652 UNTUL/N0493F320 V652 SABNO/N0494F330 A583 ZAM A461 BONDA/N0491F350 A461 BUTPA DCT 1500S13310E 1800S13450E/N0482F370 DCT DUNAN DCT 2345S13750E DCT MENIG DCT 3103S14115E 3319S14225E DCT NATYA H119 ARBEY |
| Aircraft | B77W/H-SDE1E2E3FGHIJ2J3J4J5M1RWXY/LB1D1 |
Departure
| Time | 2026-05-07 06:48 |
|---|---|
| Airport | Hong Kong International Airport (VHHH) |
Arrival
| Time | 2026-05-07 14:52 |
|---|---|
| Airport | Melbourne Airport (YMML) |
| Time | Latitude | Longitude | Altitude | Speed | Heading |
|---|---|---|---|---|---|
| 2026-05-07 06:48 | 22.16671 | 114.09102 | 8613 ft | 292 kts | 153° |
| 2026-05-07 06:48 | 22.15150 | 114.10577 | 9154 ft | 300 kts | 124° |
| 2026-05-07 06:48 | 22.14155 | 114.12563 | 9637 ft | 304 kts | 119° |
| 2026-05-07 06:48 | 22.13194 | 114.14617 | 10122 ft | 309 kts | 118° |
| 2026-05-07 06:49 | 22.12201 | 114.16741 | 10349 ft | 327 kts | 119° |
| 2026-05-07 06:49 | 22.11145 | 114.18986 | 10505 ft | 347 kts | 119° |
| 2026-05-07 06:49 | 22.10019 | 114.21366 | 10664 ft | 367 kts | 118° |
| 2026-05-07 06:49 | 22.08826 | 114.23875 | 10847 ft | 385 kts | 119° |
| 2026-05-07 06:50 | 22.07462 | 114.26332 | 11093 ft | 391 kts | 132° |
| 2026-05-07 06:50 | 22.05364 | 114.28229 | 11507 ft | 389 kts | 149° |
| 2026-05-07 06:50 | 22.03113 | 114.29856 | 12013 ft | 398 kts | 147° |
| 2026-05-07 06:50 | 22.00841 | 114.31610 | 12736 ft | 402 kts | 146° |
| 2026-05-07 06:51 | 21.98578 | 114.33399 | 13449 ft | 405 kts | 146° |
| 2026-05-07 06:51 | 21.96288 | 114.35211 | 14065 ft | 410 kts | 146° |
| 2026-05-07 06:51 | 21.93973 | 114.37039 | 14651 ft | 415 kts | 146° |
| 2026-05-07 06:51 | 21.91633 | 114.38883 | 15269 ft | 418 kts | 146° |
| 2026-05-07 06:52 | 21.89275 | 114.40738 | 15877 ft | 421 kts | 146° |
| 2026-05-07 06:52 | 21.86904 | 114.42619 | 16446 ft | 422 kts | 143° |
| 2026-05-07 06:52 | 21.84884 | 114.44957 | 16781 ft | 435 kts | 123° |
| 2026-05-07 06:52 | 21.83702 | 114.47972 | 17265 ft | 440 kts | 105° |
| 2026-05-07 06:53 | 21.82965 | 114.51137 | 17709 ft | 445 kts | 105° |
| 2026-05-07 06:53 | 21.82177 | 114.54376 | 18237 ft | 449 kts | 106° |
| 2026-05-07 06:53 | 21.81360 | 114.57629 | 18743 ft | 452 kts | 106° |
| 2026-05-07 06:53 | 21.80524 | 114.60898 | 19260 ft | 454 kts | 106° |
| 2026-05-07 06:54 | 21.79678 | 114.64186 | 19761 ft | 457 kts | 106° |
| 2026-05-07 06:54 | 21.78823 | 114.67494 | 20244 ft | 460 kts | 106° |
| 2026-05-07 06:54 | 21.77962 | 114.70828 | 20727 ft | 464 kts | 106° |
| 2026-05-07 06:54 | 21.77094 | 114.74188 | 21188 ft | 467 kts | 106° |
| 2026-05-07 06:55 | 21.76218 | 114.77576 | 21633 ft | 471 kts | 106° |
| 2026-05-07 06:55 | 21.75336 | 114.80984 | 22087 ft | 474 kts | 106° |
| 2026-05-07 06:55 | 21.74367 | 114.84378 | 22468 ft | 476 kts | 112° |
| 2026-05-07 06:55 | 21.72713 | 114.87454 | 22777 ft | 477 kts | 129° |
| 2026-05-07 06:56 | 21.70595 | 114.90212 | 23165 ft | 480 kts | 131° |
| 2026-05-07 06:56 | 21.68463 | 114.92994 | 23573 ft | 483 kts | 130° |
| 2026-05-07 06:56 | 21.66406 | 114.95803 | 23920 ft | 486 kts | 129° |
| 2026-05-07 06:56 | 21.64349 | 114.98695 | 24282 ft | 488 kts | 128° |
| 2026-05-07 06:57 | 21.62290 | 115.01611 | 24645 ft | 490 kts | 128° |
| 2026-05-07 06:57 | 21.60224 | 115.04528 | 25033 ft | 492 kts | 128° |
| 2026-05-07 06:57 | 21.58135 | 115.07468 | 25381 ft | 494 kts | 128° |
| 2026-05-07 06:57 | 21.56036 | 115.10406 | 25709 ft | 496 kts | 129° |
| 2026-05-07 06:58 | 21.53751 | 115.13203 | 26024 ft | 498 kts | 136° |
| 2026-05-07 06:58 | 21.51216 | 115.15745 | 26346 ft | 499 kts | 141° |
| 2026-05-07 06:58 | 21.48469 | 115.18023 | 26671 ft | 500 kts | 147° |
| 2026-05-07 06:58 | 21.45579 | 115.20112 | 26986 ft | 502 kts | 148° |
| 2026-05-07 06:59 | 21.42704 | 115.22174 | 27276 ft | 504 kts | 148° |
| 2026-05-07 06:59 | 21.39784 | 115.24281 | 27578 ft | 507 kts | 148° |
| 2026-05-07 06:59 | 21.36861 | 115.26410 | 27911 ft | 508 kts | 147° |
| 2026-05-07 06:59 | 21.33929 | 115.28561 | 28212 ft | 510 kts | 147° |
| 2026-05-07 07:00 | 21.30994 | 115.30721 | 28493 ft | 513 kts | 147° |
| 2026-05-07 07:00 | 21.28041 | 115.32893 | 28751 ft | 515 kts | 147° |
| 2026-05-07 07:00 | 21.25076 | 115.35070 | 29011 ft | 517 kts | 147° |
| 2026-05-07 07:00 | 21.22094 | 115.37252 | 29273 ft | 519 kts | 147° |
| 2026-05-07 07:01 | 21.19099 | 115.39436 | 29530 ft | 521 kts | 147° |
| 2026-05-07 07:01 | 21.16096 | 115.41623 | 29835 ft | 521 kts | 147° |
| 2026-05-07 07:01 | 21.13096 | 115.43808 | 30170 ft | 520 kts | 147° |
| 2026-05-07 07:01 | 21.10144 | 115.45957 | 30477 ft | 520 kts | 147° |
| 2026-05-07 07:02 | 21.07153 | 115.48135 | 30747 ft | 520 kts | 147° |
| 2026-05-07 07:02 | 21.04158 | 115.50315 | 31009 ft | 521 kts | 147° |
| 2026-05-07 07:02 | 21.01164 | 115.52494 | 31292 ft | 520 kts | 147° |
| 2026-05-07 07:02 | 20.98166 | 115.54675 | 31567 ft | 521 kts | 147° |
| 2026-05-07 07:03 | 20.95169 | 115.56853 | 31831 ft | 521 kts | 147° |
| 2026-05-07 07:03 | 20.92170 | 115.59032 | 32103 ft | 521 kts | 147° |
| 2026-05-07 07:03 | 20.89172 | 115.61210 | 32370 ft | 521 kts | 147° |
| 2026-05-07 07:03 | 20.86167 | 115.63392 | 32639 ft | 522 kts | 147° |
| 2026-05-07 07:04 | 20.83152 | 115.65580 | 32843 ft | 523 kts | 147° |
| 2026-05-07 07:04 | 20.80129 | 115.67772 | 32888 ft | 526 kts | 147° |
| 2026-05-07 07:04 | 20.74117 | 115.72126 | 32907 ft | 522 kts | 147° |
| 2026-05-07 07:05 | 20.68105 | 115.76469 | 32909 ft | 519 kts | 147° |
| 2026-05-07 07:05 | 20.62125 | 115.80786 | 32912 ft | 518 kts | 147° |
| 2026-05-07 07:06 | 20.56162 | 115.85088 | 32913 ft | 518 kts | 147° |
| 2026-05-07 07:06 | 20.50174 | 115.89405 | 32914 ft | 519 kts | 147° |
| 2026-05-07 07:07 | 20.44216 | 115.93697 | 32911 ft | 521 kts | 147° |
| 2026-05-07 07:07 | 20.38199 | 115.98027 | 32897 ft | 522 kts | 147° |
| 2026-05-07 07:08 | 20.31763 | 116.01462 | 32911 ft | 516 kts | 168° |
| 2026-05-07 07:08 | 20.28272 | 116.02065 | 32917 ft | 513 kts | 179° |
| 2026-05-07 07:08 | 20.24727 | 116.01953 | 32892 ft | 506 kts | 191° |
| 2026-05-07 07:09 | 20.17735 | 116.00849 | 32911 ft | 509 kts | 191° |
| 2026-05-07 07:09 | 20.10700 | 115.99809 | 32910 ft | 512 kts | 190° |
| 2026-05-07 07:10 | 20.03630 | 115.98826 | 32908 ft | 513 kts | 190° |
| 2026-05-07 07:10 | 19.96538 | 115.97859 | 32905 ft | 513 kts | 190° |
| 2026-05-07 07:11 | 19.89450 | 115.96893 | 32899 ft | 513 kts | 190° |
| 2026-05-07 07:11 | 19.82419 | 115.95931 | 32901 ft | 511 kts | 190° |
| 2026-05-07 07:12 | 19.75360 | 115.94965 | 32886 ft | 510 kts | 189° |
| 2026-05-07 07:12 | 19.68325 | 115.94003 | 32896 ft | 510 kts | 189° |
| 2026-05-07 07:13 | 19.61289 | 115.93041 | 32896 ft | 509 kts | 189° |
| 2026-05-07 07:13 | 19.54250 | 115.92081 | 32897 ft | 509 kts | 189° |
| 2026-05-07 07:14 | 19.47258 | 115.91127 | 32889 ft | 510 kts | 189° |
| 2026-05-07 07:14 | 19.40205 | 115.90166 | 32896 ft | 510 kts | 189° |
| 2026-05-07 07:15 | 19.33152 | 115.89206 | 32898 ft | 511 kts | 189° |
| 2026-05-07 07:15 | 19.26089 | 115.88245 | 32893 ft | 512 kts | 189° |
| 2026-05-07 07:16 | 19.19024 | 115.87285 | 32894 ft | 512 kts | 189° |
| 2026-05-07 07:16 | 19.11984 | 115.86329 | 32889 ft | 512 kts | 189° |
| 2026-05-07 07:17 | 19.04902 | 115.85368 | 32893 ft | 512 kts | 189° |
| 2026-05-07 07:17 | 18.97784 | 115.85628 | 32897 ft | 516 kts | 168° |
| 2026-05-07 07:18 | 18.91118 | 115.88319 | 32897 ft | 516 kts | 152° |
| 2026-05-07 07:18 | 18.84773 | 115.91925 | 32885 ft | 519 kts | 152° |
| 2026-05-07 07:19 | 18.78387 | 115.95510 | 32893 ft | 520 kts | 152° |
| 2026-05-07 07:19 | 18.71953 | 115.99049 | 32888 ft | 521 kts | 153° |
| 2026-05-07 07:20 | 18.65498 | 116.02570 | 32881 ft | 522 kts | 153° |
| 2026-05-07 07:20 | 18.59048 | 116.06086 | 32881 ft | 521 kts | 153° |
| 2026-05-07 07:21 | 18.52610 | 116.09596 | 32879 ft | 520 kts | 153° |
| 2026-05-07 07:21 | 18.46185 | 116.13099 | 32882 ft | 519 kts | 153° |
| 2026-05-07 07:22 | 18.39814 | 116.16570 | 32878 ft | 519 kts | 153° |
| 2026-05-07 07:22 | 18.33397 | 116.20062 | 32880 ft | 518 kts | 153° |
| 2026-05-07 07:23 | 18.26982 | 116.23550 | 32882 ft | 518 kts | 153° |
| 2026-05-07 07:23 | 18.20578 | 116.27029 | 32881 ft | 518 kts | 153° |
| 2026-05-07 07:24 | 18.14209 | 116.30486 | 32877 ft | 517 kts | 153° |
| 2026-05-07 07:24 | 18.07804 | 116.33960 | 32876 ft | 517 kts | 153° |
| 2026-05-07 07:25 | 17.98208 | 116.39160 | 32877 ft | 517 kts | 153° |
| 2026-05-07 07:26 | 17.91815 | 116.42621 | 32877 ft | 517 kts | 153° |
| 2026-05-07 07:26 | 17.85415 | 116.46083 | 32874 ft | 517 kts | 153° |
| 2026-05-07 07:27 | 17.79063 | 116.49517 | 32875 ft | 517 kts | 153° |
| 2026-05-07 07:27 | 17.72654 | 116.52975 | 32874 ft | 517 kts | 153° |
| 2026-05-07 07:28 | 17.66246 | 116.56430 | 32874 ft | 517 kts | 153° |
| 2026-05-07 07:28 | 17.59846 | 116.59879 | 32875 ft | 517 kts | 153° |
| 2026-05-07 07:29 | 17.53485 | 116.63306 | 32870 ft | 517 kts | 153° |
| 2026-05-07 07:29 | 17.47086 | 116.66750 | 32868 ft | 516 kts | 153° |
| 2026-05-07 07:30 | 17.40697 | 116.70186 | 32868 ft | 516 kts | 153° |
| 2026-05-07 07:30 | 17.35383 | 116.73042 | 32868 ft | 515 kts | 153° |
| 2026-05-07 07:31 | 17.28999 | 116.76470 | 32869 ft | 515 kts | 153° |
| 2026-05-07 07:31 | 17.22618 | 116.79894 | 32865 ft | 515 kts | 153° |
| 2026-05-07 07:32 | 17.16231 | 116.83318 | 32861 ft | 515 kts | 153° |
| 2026-05-07 07:32 | 17.09897 | 116.86712 | 32862 ft | 515 kts | 153° |
| 2026-05-07 07:33 | 17.03514 | 116.90129 | 32864 ft | 515 kts | 153° |
| 2026-05-07 07:33 | 16.97139 | 116.93539 | 32862 ft | 514 kts | 153° |
| 2026-05-07 07:34 | 16.90766 | 116.96946 | 32861 ft | 514 kts | 153° |
| 2026-05-07 07:34 | 16.84428 | 117.00332 | 32860 ft | 514 kts | 153° |
| 2026-05-07 07:35 | 16.78062 | 117.03729 | 32860 ft | 513 kts | 153° |
| 2026-05-07 07:35 | 16.71698 | 117.07123 | 32860 ft | 513 kts | 153° |
| 2026-05-07 07:36 | 16.65364 | 117.10499 | 32861 ft | 513 kts | 153° |
| 2026-05-07 07:36 | 16.58997 | 117.13890 | 32860 ft | 514 kts | 153° |
| 2026-05-07 07:37 | 16.52623 | 117.17283 | 32866 ft | 514 kts | 153° |
| 2026-05-07 07:37 | 16.46245 | 117.20674 | 32858 ft | 514 kts | 153° |
| 2026-05-07 07:38 | 16.39879 | 117.24054 | 32851 ft | 513 kts | 153° |
| 2026-05-07 07:38 | 16.33553 | 117.27411 | 32852 ft | 513 kts | 153° |
| 2026-05-07 07:39 | 16.27181 | 117.30790 | 32851 ft | 513 kts | 153° |
| 2026-05-07 07:39 | 16.20822 | 117.34161 | 32852 ft | 512 kts | 153° |
| 2026-05-07 07:40 | 16.14497 | 117.37511 | 32854 ft | 512 kts | 153° |
| 2026-05-07 07:40 | 16.08139 | 117.40876 | 32845 ft | 512 kts | 153° |
| 2026-05-07 07:41 | 16.01785 | 117.44237 | 32847 ft | 512 kts | 153° |
| 2026-05-07 07:41 | 15.95431 | 117.47595 | 32847 ft | 512 kts | 153° |
| 2026-05-07 07:42 | 15.89070 | 117.50955 | 32847 ft | 512 kts | 153° |
| 2026-05-07 07:42 | 15.82762 | 117.54283 | 32843 ft | 512 kts | 153° |
| 2026-05-07 07:43 | 15.76407 | 117.57635 | 32843 ft | 512 kts | 153° |
| 2026-05-07 07:43 | 15.70039 | 117.60991 | 32844 ft | 512 kts | 153° |
| 2026-05-07 07:44 | 15.63687 | 117.64336 | 32843 ft | 511 kts | 153° |
| 2026-05-07 07:44 | 15.57341 | 117.67677 | 32843 ft | 511 kts | 153° |
| 2026-05-07 07:45 | 15.51031 | 117.70995 | 32842 ft | 511 kts | 153° |
| 2026-05-07 07:45 | 15.44677 | 117.74335 | 32843 ft | 511 kts | 153° |
| 2026-05-07 07:46 | 15.38329 | 117.77668 | 32841 ft | 511 kts | 153° |
| 2026-05-07 07:46 | 15.31988 | 117.80996 | 32841 ft | 510 kts | 153° |
| 2026-05-07 07:47 | 15.25690 | 117.84299 | 32838 ft | 510 kts | 153° |
| 2026-05-07 07:47 | 15.19315 | 117.87641 | 32838 ft | 510 kts | 153° |
| 2026-05-07 07:48 | 15.13015 | 117.90941 | 32834 ft | 510 kts | 153° |
| 2026-05-07 07:48 | 15.06680 | 117.94256 | 32836 ft | 510 kts | 153° |
| 2026-05-07 07:49 | 15.00337 | 117.97574 | 32833 ft | 510 kts | 153° |
| 2026-05-07 07:49 | 14.93994 | 118.00890 | 32833 ft | 510 kts | 153° |
| 2026-05-07 07:50 | 14.87699 | 118.04178 | 32833 ft | 510 kts | 153° |
| 2026-05-07 07:50 | 14.81354 | 118.07490 | 32834 ft | 510 kts | 153° |
| 2026-05-07 07:51 | 14.75019 | 118.10795 | 32832 ft | 510 kts | 153° |
| 2026-05-07 07:51 | 14.68684 | 118.14098 | 32831 ft | 509 kts | 153° |
| 2026-05-07 07:52 | 14.62353 | 118.17396 | 32832 ft | 509 kts | 153° |
| 2026-05-07 07:52 | 14.56023 | 118.20692 | 32832 ft | 509 kts | 153° |
| 2026-05-07 07:53 | 14.49738 | 118.23963 | 32833 ft | 509 kts | 153° |
| 2026-05-07 07:53 | 14.43414 | 118.27252 | 32832 ft | 508 kts | 153° |
| 2026-05-07 07:54 | 14.37088 | 118.30540 | 32830 ft | 509 kts | 153° |
| 2026-05-07 07:54 | 14.30802 | 118.33805 | 32827 ft | 509 kts | 153° |
| 2026-05-07 07:55 | 14.24464 | 118.37090 | 32827 ft | 509 kts | 153° |
| 2026-05-07 07:55 | 14.18134 | 118.40366 | 32826 ft | 509 kts | 153° |
| 2026-05-07 07:56 | 14.11798 | 118.43644 | 32818 ft | 509 kts | 154° |
| 2026-05-07 07:56 | 14.05510 | 118.46897 | 32825 ft | 509 kts | 154° |
| 2026-05-07 07:57 | 13.99175 | 118.50173 | 32824 ft | 509 kts | 154° |
| 2026-05-07 07:57 | 13.92846 | 118.53443 | 32820 ft | 509 kts | 154° |
| 2026-05-07 07:58 | 13.86515 | 118.56712 | 32816 ft | 509 kts | 154° |
| 2026-05-07 07:58 | 13.80188 | 118.59977 | 32809 ft | 509 kts | 154° |
| 2026-05-07 07:59 | 13.73852 | 118.63245 | 32818 ft | 510 kts | 154° |
| 2026-05-07 07:59 | 13.67499 | 118.66520 | 32821 ft | 510 kts | 154° |
| 2026-05-07 08:00 | 13.61185 | 118.69774 | 32821 ft | 510 kts | 154° |
| 2026-05-07 08:00 | 13.54838 | 118.73041 | 32818 ft | 510 kts | 154° |
| 2026-05-07 08:01 | 13.48496 | 118.76306 | 32814 ft | 510 kts | 154° |
| 2026-05-07 08:01 | 13.42150 | 118.79573 | 32816 ft | 509 kts | 154° |
| 2026-05-07 08:02 | 13.35806 | 118.82836 | 32811 ft | 510 kts | 154° |
| 2026-05-07 08:02 | 13.29490 | 118.86084 | 32819 ft | 510 kts | 154° |
| 2026-05-07 08:03 | 13.23138 | 118.89349 | 32810 ft | 510 kts | 154° |
| 2026-05-07 08:03 | 13.16794 | 118.92607 | 32817 ft | 509 kts | 154° |
| 2026-05-07 08:04 | 13.10448 | 118.95865 | 32814 ft | 509 kts | 154° |
| 2026-05-07 08:04 | 13.04112 | 118.99116 | 32817 ft | 508 kts | 154° |
| 2026-05-07 08:05 | 12.97795 | 119.02354 | 32810 ft | 508 kts | 154° |
| 2026-05-07 08:05 | 12.91504 | 119.05578 | 32810 ft | 508 kts | 154° |
| 2026-05-07 08:06 | 12.85189 | 119.08815 | 32811 ft | 507 kts | 154° |
| 2026-05-07 08:06 | 12.78870 | 119.12052 | 32811 ft | 507 kts | 154° |
| 2026-05-07 08:07 | 12.72548 | 119.15289 | 32810 ft | 507 kts | 154° |
| 2026-05-07 08:07 | 12.66235 | 119.18519 | 32806 ft | 506 kts | 154° |
| 2026-05-07 08:08 | 12.59977 | 119.21720 | 32810 ft | 506 kts | 154° |
| 2026-05-07 08:08 | 12.53677 | 119.24940 | 32805 ft | 506 kts | 154° |
| 2026-05-07 08:09 | 12.47383 | 119.28155 | 32810 ft | 505 kts | 154° |
| 2026-05-07 08:09 | 12.41099 | 119.31363 | 32808 ft | 504 kts | 154° |
| 2026-05-07 08:10 | 12.34816 | 119.34570 | 32807 ft | 504 kts | 154° |
| 2026-05-07 08:10 | 12.28542 | 119.37769 | 32808 ft | 504 kts | 154° |
| 2026-05-07 08:11 | 12.22271 | 119.40966 | 32810 ft | 504 kts | 154° |
| 2026-05-07 08:11 | 12.15999 | 119.44162 | 32812 ft | 504 kts | 154° |
| 2026-05-07 08:12 | 12.09766 | 119.47336 | 32804 ft | 504 kts | 154° |
| 2026-05-07 08:12 | 12.03478 | 119.50536 | 32812 ft | 504 kts | 154° |
| 2026-05-07 08:13 | 11.97198 | 119.53731 | 32810 ft | 504 kts | 154° |
| 2026-05-07 08:13 | 11.90924 | 119.56921 | 32810 ft | 503 kts | 154° |
| 2026-05-07 08:14 | 11.84652 | 119.60108 | 32807 ft | 503 kts | 154° |
| 2026-05-07 08:14 | 11.78389 | 119.63290 | 32807 ft | 502 kts | 154° |
| 2026-05-07 08:15 | 11.72173 | 119.66446 | 32809 ft | 502 kts | 154° |
| 2026-05-07 08:15 | 11.65922 | 119.69620 | 32811 ft | 501 kts | 154° |
| 2026-05-07 08:16 | 11.59673 | 119.72797 | 32811 ft | 501 kts | 154° |
| 2026-05-07 08:16 | 11.53421 | 119.75975 | 32811 ft | 501 kts | 154° |
| 2026-05-07 08:17 | 11.47164 | 119.79154 | 32808 ft | 501 kts | 154° |
| 2026-05-07 08:17 | 11.40961 | 119.82304 | 32811 ft | 501 kts | 154° |
| 2026-05-07 08:18 | 11.34704 | 119.85479 | 32808 ft | 501 kts | 155° |
| 2026-05-07 08:18 | 11.28460 | 119.88647 | 32811 ft | 501 kts | 154° |
| 2026-05-07 08:19 | 11.23265 | 119.91281 | 32805 ft | 500 kts | 154° |
| 2026-05-07 08:19 | 11.16027 | 119.94949 | 32807 ft | 500 kts | 155° |
| 2026-05-07 08:20 | 11.09797 | 119.98106 | 32806 ft | 500 kts | 155° |
| 2026-05-07 08:20 | 11.04615 | 120.00731 | 32806 ft | 500 kts | 155° |
| 2026-05-07 08:21 | 10.98385 | 120.03878 | 32802 ft | 499 kts | 155° |
| 2026-05-07 08:21 | 10.92150 | 120.07020 | 32805 ft | 499 kts | 155° |
| 2026-05-07 08:22 | 10.85919 | 120.10159 | 32804 ft | 499 kts | 155° |
| 2026-05-07 08:22 | 10.79678 | 120.13303 | 32810 ft | 500 kts | 155° |
| 2026-05-07 08:23 | 10.73479 | 120.16425 | 32802 ft | 500 kts | 155° |
| 2026-05-07 08:23 | 10.67227 | 120.19573 | 32805 ft | 500 kts | 155° |
| 2026-05-07 08:24 | 10.61033 | 120.22690 | 32803 ft | 500 kts | 154° |
| 2026-05-07 08:24 | 10.54791 | 120.25829 | 32803 ft | 500 kts | 154° |
| 2026-05-07 08:25 | 10.48559 | 120.28962 | 32801 ft | 500 kts | 155° |
| 2026-05-07 08:25 | 10.42317 | 120.32099 | 32804 ft | 500 kts | 155° |
| 2026-05-07 08:26 | 10.32997 | 120.36781 | 32802 ft | 500 kts | 155° |
| 2026-05-07 08:26 | 10.26762 | 120.39911 | 32806 ft | 500 kts | 155° |
| 2026-05-07 08:27 | 10.20519 | 120.43043 | 32805 ft | 500 kts | 155° |
| 2026-05-07 08:27 | 10.14275 | 120.46174 | 32802 ft | 500 kts | 155° |
| 2026-05-07 08:28 | 10.08033 | 120.49304 | 32806 ft | 500 kts | 154° |
| 2026-05-07 08:28 | 10.01831 | 120.52412 | 32803 ft | 500 kts | 155° |
| 2026-05-07 08:29 | 9.95586 | 120.55541 | 32804 ft | 500 kts | 154° |
| 2026-05-07 08:29 | 9.89339 | 120.58670 | 32800 ft | 500 kts | 155° |
| 2026-05-07 08:30 | 9.83088 | 120.61800 | 32804 ft | 500 kts | 154° |
| 2026-05-07 08:30 | 9.76843 | 120.64927 | 32811 ft | 500 kts | 154° |
| 2026-05-07 08:31 | 9.70597 | 120.68047 | 32801 ft | 501 kts | 155° |
| 2026-05-07 08:31 | 9.64339 | 120.71164 | 32804 ft | 501 kts | 154° |
| 2026-05-07 08:32 | 9.58116 | 120.74261 | 32802 ft | 501 kts | 155° |
| 2026-05-07 08:32 | 9.51852 | 120.77379 | 32804 ft | 501 kts | 155° |
| 2026-05-07 08:33 | 9.45591 | 120.80495 | 32803 ft | 501 kts | 155° |
| 2026-05-07 08:33 | 9.39318 | 120.83616 | 32804 ft | 502 kts | 155° |
| 2026-05-07 08:34 | 9.33046 | 120.86736 | 32807 ft | 502 kts | 155° |
| 2026-05-07 08:34 | 9.26767 | 120.89858 | 32805 ft | 503 kts | 154° |
| 2026-05-07 08:35 | 9.20489 | 120.92979 | 32807 ft | 502 kts | 154° |
| 2026-05-07 08:35 | 9.14203 | 120.96100 | 32809 ft | 502 kts | 155° |
| 2026-05-07 08:36 | 9.07967 | 120.99197 | 32804 ft | 503 kts | 154° |
| 2026-05-07 08:36 | 9.01674 | 121.02321 | 32808 ft | 504 kts | 154° |
| 2026-05-07 08:37 | 8.95376 | 121.05446 | 32809 ft | 504 kts | 154° |
| 2026-05-07 08:37 | 8.89089 | 121.08564 | 32807 ft | 503 kts | 154° |
| 2026-05-07 08:38 | 8.82792 | 121.11687 | 32806 ft | 503 kts | 154° |
| 2026-05-07 08:38 | 8.76543 | 121.14783 | 32801 ft | 503 kts | 155° |
| 2026-05-07 08:39 | 8.70258 | 121.17896 | 32804 ft | 503 kts | 154° |
| 2026-05-07 08:39 | 8.63965 | 121.21013 | 32799 ft | 503 kts | 155° |
| 2026-05-07 08:40 | 8.57657 | 121.24136 | 32811 ft | 503 kts | 154° |
| 2026-05-07 08:40 | 8.51403 | 121.27231 | 32807 ft | 504 kts | 154° |
| 2026-05-07 08:41 | 8.45084 | 121.30357 | 32804 ft | 504 kts | 154° |
| 2026-05-07 08:41 | 8.38814 | 121.33458 | 32806 ft | 503 kts | 154° |
| 2026-05-07 08:42 | 8.32524 | 121.36566 | 32800 ft | 503 kts | 155° |
| 2026-05-07 08:42 | 8.26233 | 121.39675 | 32803 ft | 503 kts | 155° |
| 2026-05-07 08:43 | 8.19933 | 121.42787 | 32805 ft | 503 kts | 155° |
| 2026-05-07 08:43 | 8.13628 | 121.45901 | 32800 ft | 504 kts | 155° |
| 2026-05-07 08:44 | 8.07368 | 121.48990 | 32803 ft | 504 kts | 155° |
| 2026-05-07 08:44 | 8.01066 | 121.52101 | 32802 ft | 503 kts | 154° |
| 2026-05-07 08:45 | 7.94755 | 121.55213 | 32794 ft | 503 kts | 155° |
| 2026-05-07 08:45 | 7.88502 | 121.58296 | 32800 ft | 503 kts | 155° |
| 2026-05-07 08:46 | 7.82210 | 121.61398 | 32805 ft | 503 kts | 154° |
| 2026-05-07 08:46 | 7.75910 | 121.64505 | 32802 ft | 503 kts | 154° |
| 2026-05-07 08:47 | 7.69630 | 121.67597 | 32799 ft | 502 kts | 155° |
| 2026-05-07 08:47 | 7.63359 | 121.70685 | 32805 ft | 501 kts | 154° |
| 2026-05-07 08:48 | 7.57099 | 121.73767 | 32800 ft | 501 kts | 154° |
| 2026-05-07 08:48 | 7.50838 | 121.76847 | 32801 ft | 501 kts | 155° |
| 2026-05-07 08:49 | 7.44607 | 121.79914 | 32811 ft | 501 kts | 154° |
| 2026-05-07 08:49 | 7.38344 | 121.82995 | 32807 ft | 501 kts | 155° |
| 2026-05-07 08:50 | 7.32061 | 121.86085 | 32812 ft | 502 kts | 155° |
| 2026-05-07 08:50 | 7.25776 | 121.89173 | 32815 ft | 503 kts | 155° |
| 2026-05-07 08:51 | 7.19517 | 121.92245 | 32810 ft | 503 kts | 154° |
| 2026-05-07 08:51 | 7.13221 | 121.95335 | 32813 ft | 503 kts | 154° |
| 2026-05-07 08:52 | 7.06925 | 121.98423 | 32807 ft | 503 kts | 154° |
| 2026-05-07 08:52 | 7.00627 | 122.01513 | 32801 ft | 502 kts | 154° |
| 2026-05-07 08:53 | 6.94385 | 122.04574 | 32800 ft | 501 kts | 154° |
| 2026-05-07 08:53 | 6.88224 | 122.07873 | 32800 ft | 501 kts | 151° |
| 2026-05-07 08:54 | 6.82177 | 122.11368 | 32803 ft | 501 kts | 150° |
| 2026-05-07 08:54 | 6.76124 | 122.14858 | 32803 ft | 502 kts | 151° |
| 2026-05-07 08:55 | 6.70051 | 122.18332 | 32809 ft | 502 kts | 151° |
| 2026-05-07 08:55 | 6.63963 | 122.21807 | 32809 ft | 502 kts | 151° |
| 2026-05-07 08:56 | 6.57876 | 122.25284 | 32809 ft | 503 kts | 151° |
| 2026-05-07 08:56 | 6.51789 | 122.28759 | 32807 ft | 503 kts | 151° |
| 2026-05-07 08:57 | 6.45703 | 122.32231 | 32805 ft | 503 kts | 151° |
| 2026-05-07 08:57 | 6.39652 | 122.35683 | 32808 ft | 503 kts | 151° |
| 2026-05-07 08:58 | 6.33575 | 122.39151 | 32804 ft | 502 kts | 151° |
| 2026-05-07 08:58 | 6.27507 | 122.42612 | 32807 ft | 501 kts | 151° |
| 2026-05-07 08:59 | 6.21451 | 122.46066 | 32804 ft | 500 kts | 151° |
| 2026-05-07 08:59 | 6.15391 | 122.49520 | 32807 ft | 500 kts | 151° |
| 2026-05-07 09:00 | 6.09375 | 122.52950 | 32805 ft | 500 kts | 151° |
| 2026-05-07 09:00 | 6.03329 | 122.56395 | 32808 ft | 499 kts | 151° |
| 2026-05-07 09:01 | 5.97282 | 122.59840 | 32803 ft | 499 kts | 151° |
| 2026-05-07 09:01 | 5.91239 | 122.63281 | 32810 ft | 499 kts | 151° |
| 2026-05-07 09:02 | 5.85179 | 122.66731 | 32805 ft | 500 kts | 151° |
| 2026-05-07 09:02 | 5.79129 | 122.70175 | 32807 ft | 500 kts | 151° |
| 2026-05-07 09:03 | 5.73072 | 122.73622 | 32812 ft | 500 kts | 151° |
| 2026-05-07 09:03 | 5.67057 | 122.77045 | 32810 ft | 500 kts | 151° |
| 2026-05-07 09:04 | 5.60998 | 122.80491 | 32812 ft | 500 kts | 151° |
| 2026-05-07 09:04 | 5.54939 | 122.83937 | 32813 ft | 500 kts | 151° |
| 2026-05-07 09:05 | 5.48877 | 122.87383 | 32815 ft | 500 kts | 151° |
| 2026-05-07 09:05 | 5.42806 | 122.90834 | 32808 ft | 500 kts | 151° |
| 2026-05-07 09:06 | 5.36753 | 122.94274 | 32811 ft | 500 kts | 151° |
| 2026-05-07 09:06 | 5.30731 | 122.97695 | 32814 ft | 500 kts | 151° |
| 2026-05-07 09:07 | 5.24678 | 123.01134 | 32813 ft | 500 kts | 151° |
| 2026-05-07 09:07 | 5.19639 | 123.03996 | 32808 ft | 500 kts | 151° |
| 2026-05-07 09:08 | 5.13585 | 123.07433 | 32813 ft | 500 kts | 151° |
| 2026-05-07 09:08 | 5.07532 | 123.10869 | 32815 ft | 500 kts | 151° |
| 2026-05-07 09:09 | 5.01468 | 123.14310 | 32814 ft | 500 kts | 151° |
| 2026-05-07 09:09 | 4.95407 | 123.17750 | 32813 ft | 500 kts | 151° |
| 2026-05-07 09:10 | 4.89382 | 123.21167 | 32816 ft | 500 kts | 151° |
| 2026-05-07 09:10 | 4.83321 | 123.24605 | 32814 ft | 501 kts | 151° |
| 2026-05-07 09:11 | 4.77253 | 123.28046 | 32810 ft | 501 kts | 151° |
| 2026-05-07 09:11 | 4.71188 | 123.31485 | 32810 ft | 500 kts | 151° |
| 2026-05-07 09:12 | 4.65135 | 123.34916 | 32813 ft | 500 kts | 151° |
| 2026-05-07 09:12 | 4.59109 | 123.38331 | 32816 ft | 499 kts | 151° |
| 2026-05-07 09:13 | 4.53061 | 123.41758 | 32817 ft | 499 kts | 151° |
| 2026-05-07 09:13 | 4.47021 | 123.45180 | 32814 ft | 499 kts | 151° |
| 2026-05-07 09:14 | 4.40983 | 123.48599 | 32814 ft | 498 kts | 151° |
| 2026-05-07 09:14 | 4.34946 | 123.52018 | 32812 ft | 498 kts | 151° |
| 2026-05-07 09:15 | 4.28912 | 123.55435 | 32812 ft | 498 kts | 151° |
| 2026-05-07 09:15 | 4.22913 | 123.58831 | 32816 ft | 498 kts | 151° |
| 2026-05-07 09:16 | 4.16884 | 123.62244 | 32812 ft | 498 kts | 151° |
| 2026-05-07 09:16 | 4.10853 | 123.65657 | 32810 ft | 498 kts | 151° |
| 2026-05-07 09:17 | 4.04824 | 123.69070 | 32816 ft | 498 kts | 151° |
| 2026-05-07 09:17 | 3.98795 | 123.72487 | 32807 ft | 498 kts | 150° |
| 2026-05-07 09:18 | 3.92825 | 123.76015 | 32811 ft | 498 kts | 149° |
| 2026-05-07 09:18 | 3.86905 | 123.79577 | 32818 ft | 498 kts | 149° |
| 2026-05-07 09:19 | 3.80955 | 123.83146 | 32813 ft | 498 kts | 149° |
| 2026-05-07 09:19 | 3.74998 | 123.86700 | 32812 ft | 498 kts | 149° |
| 2026-05-07 09:20 | 3.69042 | 123.90247 | 32817 ft | 498 kts | 149° |
| 2026-05-07 09:20 | 3.63084 | 123.93795 | 32814 ft | 498 kts | 149° |
| 2026-05-07 09:21 | 3.57124 | 123.97345 | 32815 ft | 498 kts | 149° |
| 2026-05-07 09:21 | 3.51203 | 124.00871 | 32812 ft | 498 kts | 149° |
| 2026-05-07 09:22 | 3.45254 | 124.04414 | 32812 ft | 497 kts | 149° |
| 2026-05-07 09:22 | 3.39296 | 124.07961 | 32806 ft | 497 kts | 149° |
| 2026-05-07 09:23 | 3.33346 | 124.11503 | 32817 ft | 497 kts | 149° |
| 2026-05-07 09:23 | 3.27397 | 124.15044 | 32812 ft | 497 kts | 149° |
| 2026-05-07 09:24 | 3.21484 | 124.18562 | 32812 ft | 497 kts | 149° |
| 2026-05-07 09:24 | 3.15532 | 124.22104 | 32810 ft | 497 kts | 149° |
| 2026-05-07 09:25 | 3.09573 | 124.25650 | 32810 ft | 497 kts | 149° |
| 2026-05-07 09:25 | 3.03661 | 124.29167 | 32809 ft | 497 kts | 149° |
| 2026-05-07 09:26 | 2.97713 | 124.32704 | 32810 ft | 497 kts | 149° |
| 2026-05-07 09:26 | 2.91763 | 124.36243 | 32806 ft | 497 kts | 149° |
| 2026-05-07 09:27 | 2.85815 | 124.39780 | 32825 ft | 497 kts | 149° |
| 2026-05-07 09:28 | 2.76932 | 124.45062 | 32817 ft | 496 kts | 149° |
| 2026-05-07 09:28 | 2.70991 | 124.48593 | 32819 ft | 496 kts | 149° |
| 2026-05-07 09:29 | 2.65054 | 124.52122 | 32813 ft | 496 kts | 149° |
| 2026-05-07 09:29 | 2.59126 | 124.55646 | 32807 ft | 496 kts | 149° |
| 2026-05-07 09:30 | 2.53185 | 124.59176 | 32803 ft | 496 kts | 149° |
| 2026-05-07 09:30 | 2.47251 | 124.62703 | 32804 ft | 496 kts | 149° |
| 2026-05-07 09:31 | 2.41312 | 124.66231 | 32822 ft | 496 kts | 149° |
| 2026-05-07 09:31 | 2.35413 | 124.69736 | 32821 ft | 496 kts | 149° |
| 2026-05-07 09:32 | 2.29471 | 124.73266 | 32808 ft | 496 kts | 149° |
| 2026-05-07 09:32 | 2.23532 | 124.76794 | 32810 ft | 496 kts | 149° |
| 2026-05-07 09:33 | 2.17593 | 124.80322 | 32802 ft | 496 kts | 149° |
| 2026-05-07 09:33 | 2.11655 | 124.83849 | 32799 ft | 496 kts | 149° |
| 2026-05-07 09:34 | 2.05753 | 124.87354 | 32819 ft | 496 kts | 149° |
| 2026-05-07 09:34 | 1.99789 | 124.90868 | 32895 ft | 500 kts | 150° |
| 2026-05-07 09:34 | 1.96782 | 124.92621 | 33171 ft | 499 kts | 150° |
| 2026-05-07 09:35 | 1.93785 | 124.94366 | 33590 ft | 496 kts | 150° |
| 2026-05-07 09:35 | 1.90813 | 124.96095 | 33993 ft | 493 kts | 150° |
| 2026-05-07 09:35 | 1.87854 | 124.97818 | 34325 ft | 491 kts | 150° |
| 2026-05-07 09:35 | 1.84909 | 124.99536 | 34673 ft | 488 kts | 150° |
| 2026-05-07 09:36 | 1.81969 | 125.01252 | 34881 ft | 490 kts | 150° |
| 2026-05-07 09:36 | 1.76079 | 125.04690 | 34848 ft | 492 kts | 150° |
| 2026-05-07 09:37 | 1.70197 | 125.08125 | 34877 ft | 487 kts | 150° |
| 2026-05-07 09:37 | 1.64351 | 125.11539 | 34879 ft | 485 kts | 150° |
| 2026-05-07 09:38 | 1.58523 | 125.14941 | 34877 ft | 485 kts | 150° |
| 2026-05-07 09:38 | 1.52687 | 125.18348 | 34878 ft | 485 kts | 150° |
| 2026-05-07 09:39 | 1.46846 | 125.21757 | 34876 ft | 486 kts | 150° |
| 2026-05-07 09:39 | 1.41005 | 125.25166 | 34860 ft | 487 kts | 150° |
| 2026-05-07 09:40 | 1.35186 | 125.28563 | 34852 ft | 487 kts | 150° |
| 2026-05-07 09:40 | 1.29307 | 125.31993 | 34856 ft | 488 kts | 150° |
| 2026-05-07 09:41 | 1.23471 | 125.35399 | 34838 ft | 488 kts | 150° |
| 2026-05-07 09:41 | 1.17598 | 125.38826 | 34838 ft | 489 kts | 150° |
| 2026-05-07 09:42 | 1.11722 | 125.42256 | 34823 ft | 488 kts | 150° |
| 2026-05-07 09:42 | 1.05840 | 125.45687 | 34825 ft | 488 kts | 150° |
| 2026-05-07 09:43 | 1.00011 | 125.49088 | 34813 ft | 488 kts | 150° |
| 2026-05-07 09:43 | 0.94142 | 125.52512 | 34820 ft | 488 kts | 150° |
| 2026-05-07 09:44 | 0.88271 | 125.55937 | 34817 ft | 489 kts | 150° |
| 2026-05-07 09:44 | 0.82391 | 125.59368 | 34818 ft | 489 kts | 150° |
| 2026-05-07 09:45 | 0.76506 | 125.62801 | 34807 ft | 489 kts | 150° |
| 2026-05-07 09:45 | 0.70664 | 125.66209 | 34827 ft | 489 kts | 150° |
| 2026-05-07 09:46 | 0.64778 | 125.69643 | 34802 ft | 489 kts | 150° |
| 2026-05-07 09:46 | 0.58902 | 125.73070 | 34824 ft | 489 kts | 150° |
| 2026-05-07 09:47 | 0.53017 | 125.76503 | 34818 ft | 489 kts | 150° |
| 2026-05-07 09:47 | 0.47136 | 125.79933 | 34815 ft | 489 kts | 150° |
| 2026-05-07 09:48 | 0.41256 | 125.83363 | 34823 ft | 489 kts | 150° |
| 2026-05-07 09:48 | 0.35417 | 125.86769 | 34820 ft | 489 kts | 150° |
| 2026-05-07 09:49 | 0.29530 | 125.90202 | 34820 ft | 489 kts | 150° |
| 2026-05-07 09:49 | 0.23647 | 125.93634 | 34825 ft | 489 kts | 150° |
| 2026-05-07 09:50 | 0.17765 | 125.97064 | 34820 ft | 489 kts | 150° |
| 2026-05-07 09:50 | 0.11887 | 126.00493 | 34823 ft | 489 kts | 150° |
| 2026-05-07 09:51 | 0.06003 | 126.03924 | 34817 ft | 490 kts | 150° |
| 2026-05-07 09:51 | 0.00148 | 126.07339 | 34825 ft | 490 kts | 150° |
| 2026-05-07 09:52 | -0.05747 | 126.10777 | 34821 ft | 490 kts | 150° |
| 2026-05-07 09:52 | -0.11640 | 126.14214 | 34822 ft | 490 kts | 150° |
| 2026-05-07 09:53 | -0.17528 | 126.17648 | 34822 ft | 490 kts | 150° |
| 2026-05-07 09:53 | -0.23412 | 126.21080 | 34821 ft | 489 kts | 150° |
| 2026-05-07 09:54 | -0.29302 | 126.24516 | 34821 ft | 489 kts | 150° |
| 2026-05-07 09:54 | -0.35145 | 126.27923 | 34822 ft | 489 kts | 149° |
| 2026-05-07 09:55 | -0.41021 | 126.31351 | 34822 ft | 489 kts | 149° |
| 2026-05-07 09:55 | -0.46897 | 126.34778 | 34822 ft | 489 kts | 149° |
| 2026-05-07 09:56 | -0.51780 | 126.37626 | 34823 ft | 489 kts | 149° |
| 2026-05-07 09:56 | -0.57664 | 126.41058 | 34821 ft | 489 kts | 149° |
| 2026-05-07 09:57 | -0.63545 | 126.44489 | 34825 ft | 489 kts | 149° |
| 2026-05-07 09:57 | -0.69424 | 126.47918 | 34821 ft | 489 kts | 149° |
| 2026-05-07 09:58 | -0.75311 | 126.51353 | 34829 ft | 489 kts | 149° |
| 2026-05-07 09:58 | -0.81190 | 126.54782 | 34822 ft | 490 kts | 149° |
| 2026-05-07 09:59 | -0.87042 | 126.58196 | 34827 ft | 490 kts | 149° |
| 2026-05-07 09:59 | -0.92928 | 126.61631 | 34827 ft | 489 kts | 149° |
| 2026-05-07 10:00 | -0.98811 | 126.65063 | 34823 ft | 489 kts | 149° |
| 2026-05-07 10:00 | -1.04696 | 126.68496 | 34825 ft | 489 kts | 149° |
| 2026-05-07 10:01 | -1.10572 | 126.71925 | 34830 ft | 489 kts | 149° |
| 2026-05-07 10:01 | -1.16455 | 126.75357 | 34819 ft | 489 kts | 149° |
| 2026-05-07 10:02 | -1.22334 | 126.78788 | 34826 ft | 490 kts | 149° |
| 2026-05-07 10:02 | -1.28219 | 126.82222 | 34824 ft | 490 kts | 149° |
| 2026-05-07 10:03 | -1.34101 | 126.85655 | 34825 ft | 490 kts | 149° |
| 2026-05-07 10:03 | -1.39951 | 126.89069 | 34824 ft | 489 kts | 149° |
| 2026-05-07 10:04 | -1.45833 | 126.92502 | 34822 ft | 489 kts | 149° |
| 2026-05-07 10:04 | -1.51709 | 126.95932 | 34827 ft | 488 kts | 149° |
| 2026-05-07 10:05 | -1.57581 | 126.99359 | 34819 ft | 489 kts | 149° |
| 2026-05-07 10:05 | -1.63453 | 127.02788 | 34831 ft | 488 kts | 149° |
| 2026-05-07 10:06 | -1.69324 | 127.06215 | 34825 ft | 489 kts | 149° |
| 2026-05-07 10:06 | -1.75212 | 127.09653 | 34829 ft | 490 kts | 149° |
| 2026-05-07 10:07 | -1.81105 | 127.13094 | 34831 ft | 490 kts | 149° |
| 2026-05-07 10:07 | -1.86993 | 127.16532 | 34827 ft | 491 kts | 149° |
| 2026-05-07 10:08 | -1.92852 | 127.19954 | 34834 ft | 490 kts | 149° |
| 2026-05-07 10:08 | -1.98747 | 127.23396 | 34829 ft | 490 kts | 149° |
| 2026-05-07 10:09 | -2.04642 | 127.26840 | 34829 ft | 490 kts | 149° |
| 2026-05-07 10:09 | -2.10533 | 127.30281 | 34832 ft | 490 kts | 149° |
| 2026-05-07 10:10 | -2.16426 | 127.33724 | 34826 ft | 490 kts | 149° |
| 2026-05-07 10:10 | -2.22282 | 127.37145 | 34831 ft | 491 kts | 149° |
| 2026-05-07 10:11 | -2.28181 | 127.40592 | 34833 ft | 491 kts | 149° |
| 2026-05-07 10:11 | -2.34088 | 127.44044 | 34828 ft | 491 kts | 149° |
| 2026-05-07 10:12 | -2.39998 | 127.47497 | 34831 ft | 491 kts | 149° |
| 2026-05-07 10:12 | -2.45870 | 127.50930 | 34827 ft | 492 kts | 149° |
| 2026-05-07 10:13 | -2.51789 | 127.54390 | 34834 ft | 492 kts | 149° |
| 2026-05-07 10:13 | -2.57705 | 127.57848 | 34833 ft | 493 kts | 149° |
| 2026-05-07 10:14 | -2.63635 | 127.61315 | 34836 ft | 494 kts | 149° |
| 2026-05-07 10:14 | -2.69569 | 127.64785 | 34837 ft | 494 kts | 149° |
| 2026-05-07 10:15 | -2.75502 | 127.68254 | 34834 ft | 494 kts | 149° |
| 2026-05-07 10:15 | -2.81440 | 127.71727 | 34836 ft | 494 kts | 149° |
| 2026-05-07 10:16 | -2.87332 | 127.75173 | 34835 ft | 494 kts | 149° |
| 2026-05-07 10:16 | -2.93268 | 127.78646 | 34836 ft | 494 kts | 149° |
| 2026-05-07 10:17 | -2.99196 | 127.82114 | 34835 ft | 493 kts | 149° |
| 2026-05-07 10:17 | -3.05132 | 127.85588 | 34847 ft | 493 kts | 149° |
| 2026-05-07 10:18 | -3.11059 | 127.89057 | 34847 ft | 493 kts | 149° |
| 2026-05-07 10:18 | -3.16944 | 127.92501 | 34832 ft | 492 kts | 149° |
| 2026-05-07 10:19 | -3.22862 | 127.95965 | 34833 ft | 492 kts | 149° |
| 2026-05-07 10:19 | -3.28764 | 127.99422 | 34847 ft | 492 kts | 149° |
| 2026-05-07 10:20 | -3.34674 | 128.02883 | 34850 ft | 491 kts | 149° |
| 2026-05-07 10:20 | -3.40542 | 128.06319 | 34848 ft | 491 kts | 149° |
| 2026-05-07 10:21 | -3.46439 | 128.09773 | 34856 ft | 491 kts | 149° |
| 2026-05-07 10:21 | -3.52332 | 128.13227 | 34827 ft | 491 kts | 149° |
| 2026-05-07 10:22 | -3.58231 | 128.16681 | 34841 ft | 490 kts | 150° |
| 2026-05-07 10:22 | -3.64411 | 128.19546 | 34831 ft | 490 kts | 161° |
| 2026-05-07 10:23 | -3.70940 | 128.21488 | 34830 ft | 490 kts | 164° |
| 2026-05-07 10:23 | -3.77496 | 128.23381 | 34841 ft | 490 kts | 164° |
| 2026-05-07 10:24 | -3.84055 | 128.25305 | 34830 ft | 491 kts | 163° |
| 2026-05-07 10:24 | -3.90571 | 128.27240 | 34830 ft | 491 kts | 163° |
| 2026-05-07 10:25 | -3.97141 | 128.29199 | 34854 ft | 493 kts | 163° |
| 2026-05-07 10:25 | -4.03726 | 128.31161 | 34844 ft | 494 kts | 163° |
| 2026-05-07 10:26 | -4.10317 | 128.33124 | 34858 ft | 494 kts | 163° |
| 2026-05-07 10:26 | -4.16924 | 128.35091 | 34859 ft | 495 kts | 163° |
| 2026-05-07 10:27 | -4.23500 | 128.37050 | 34841 ft | 495 kts | 163° |
| 2026-05-07 10:27 | -4.30113 | 128.39019 | 34855 ft | 496 kts | 163° |
| 2026-05-07 10:28 | -4.36743 | 128.40995 | 34856 ft | 496 kts | 163° |
| 2026-05-07 10:28 | -4.43354 | 128.42965 | 34855 ft | 496 kts | 163° |
| 2026-05-07 10:29 | -4.49920 | 128.44922 | 34841 ft | 495 kts | 163° |
| 2026-05-07 10:29 | -4.56528 | 128.46892 | 34853 ft | 495 kts | 163° |
| 2026-05-07 10:30 | -4.66441 | 128.49848 | 34859 ft | 495 kts | 163° |
| 2026-05-07 10:30 | -4.73062 | 128.51822 | 34861 ft | 495 kts | 163° |
| 2026-05-07 10:31 | -4.79644 | 128.53786 | 34851 ft | 496 kts | 163° |
| 2026-05-07 10:31 | -4.86263 | 128.55761 | 34859 ft | 496 kts | 163° |
| 2026-05-07 10:32 | -4.92893 | 128.57739 | 34861 ft | 497 kts | 163° |
| 2026-05-07 10:32 | -4.99524 | 128.59719 | 34847 ft | 498 kts | 163° |
| 2026-05-07 10:33 | -5.06139 | 128.61694 | 34863 ft | 498 kts | 163° |
| 2026-05-07 10:33 | -5.12790 | 128.63680 | 34861 ft | 498 kts | 163° |
| 2026-05-07 10:34 | -5.19437 | 128.65666 | 34863 ft | 498 kts | 164° |
| 2026-05-07 10:34 | -5.26087 | 128.67652 | 34863 ft | 498 kts | 163° |
| 2026-05-07 10:35 | -5.32696 | 128.69627 | 34857 ft | 499 kts | 164° |
| 2026-05-07 10:35 | -5.39347 | 128.71616 | 34865 ft | 499 kts | 164° |
| 2026-05-07 10:36 | -5.46000 | 128.73604 | 34854 ft | 499 kts | 164° |
| 2026-05-07 10:36 | -5.52661 | 128.75596 | 34866 ft | 499 kts | 164° |
| 2026-05-07 10:37 | -5.59309 | 128.77584 | 34856 ft | 499 kts | 164° |
| 2026-05-07 10:37 | -5.65959 | 128.79574 | 34867 ft | 498 kts | 164° |
| 2026-05-07 10:38 | -5.72613 | 128.81565 | 34865 ft | 498 kts | 164° |
| 2026-05-07 10:38 | -5.79257 | 128.83554 | 34865 ft | 498 kts | 164° |
| 2026-05-07 10:39 | -5.85903 | 128.85543 | 34864 ft | 498 kts | 164° |
| 2026-05-07 10:39 | -5.92544 | 128.87532 | 34864 ft | 498 kts | 165° |
| 2026-05-07 10:40 | -5.99155 | 128.89512 | 34872 ft | 498 kts | 165° |
| 2026-05-07 10:40 | -6.05811 | 128.91506 | 34872 ft | 499 kts | 165° |
| 2026-05-07 10:41 | -6.12469 | 128.93501 | 34874 ft | 499 kts | 164° |
| 2026-05-07 10:41 | -6.19135 | 128.95500 | 34866 ft | 500 kts | 165° |
| 2026-05-07 10:42 | -6.25763 | 128.97487 | 34874 ft | 500 kts | 165° |
| 2026-05-07 10:42 | -6.32440 | 128.99490 | 34867 ft | 501 kts | 165° |
| 2026-05-07 10:43 | -6.39126 | 129.01496 | 34882 ft | 501 kts | 165° |
| 2026-05-07 10:43 | -6.45779 | 129.03492 | 34874 ft | 501 kts | 165° |
| 2026-05-07 10:44 | -6.52469 | 129.05500 | 34876 ft | 501 kts | 165° |
| 2026-05-07 10:44 | -6.59157 | 129.07508 | 34871 ft | 502 kts | 165° |
| 2026-05-07 10:45 | -6.64720 | 129.09179 | 34875 ft | 502 kts | 165° |
| 2026-05-07 10:45 | -6.72511 | 129.11519 | 34872 ft | 502 kts | 165° |
| 2026-05-07 10:46 | -6.78119 | 129.13205 | 34872 ft | 502 kts | 165° |
| 2026-05-07 10:46 | -6.84783 | 129.15208 | 34885 ft | 502 kts | 165° |
| 2026-05-07 10:47 | -6.91485 | 129.17223 | 34871 ft | 503 kts | 165° |
| 2026-05-07 10:47 | -6.98202 | 129.19243 | 34895 ft | 503 kts | 165° |
| 2026-05-07 10:48 | -7.04922 | 129.21265 | 34878 ft | 503 kts | 165° |
| 2026-05-07 10:48 | -7.11636 | 129.23286 | 34893 ft | 503 kts | 165° |
| 2026-05-07 10:49 | -7.18351 | 129.25308 | 34878 ft | 504 kts | 165° |
| 2026-05-07 10:49 | -7.25034 | 129.27320 | 34894 ft | 504 kts | 165° |
| 2026-05-07 10:50 | -7.31771 | 129.29349 | 34878 ft | 505 kts | 165° |
| 2026-05-07 10:50 | -7.38495 | 129.31375 | 34896 ft | 505 kts | 165° |
| 2026-05-07 10:51 | -7.45228 | 129.33405 | 34879 ft | 505 kts | 165° |
| 2026-05-07 10:51 | -7.51956 | 129.35433 | 34898 ft | 504 kts | 165° |
| 2026-05-07 10:52 | -7.58681 | 129.37462 | 34892 ft | 504 kts | 165° |
| 2026-05-07 10:52 | -7.65356 | 129.39476 | 34900 ft | 504 kts | 165° |
| 2026-05-07 10:53 | -7.72085 | 129.41506 | 34893 ft | 504 kts | 165° |
| 2026-05-07 10:53 | -7.78805 | 129.43535 | 34897 ft | 504 kts | 165° |
| 2026-05-07 10:54 | -7.85539 | 129.45569 | 34898 ft | 504 kts | 165° |
| 2026-05-07 10:54 | -7.92273 | 129.47603 | 34908 ft | 504 kts | 165° |
| 2026-05-07 10:55 | -7.99006 | 129.49638 | 34901 ft | 506 kts | 165° |
| 2026-05-07 10:55 | -8.05725 | 129.51669 | 34903 ft | 507 kts | 165° |
| 2026-05-07 10:56 | -8.12506 | 129.53720 | 34910 ft | 509 kts | 166° |
| 2026-05-07 10:56 | -8.19303 | 129.55777 | 34908 ft | 509 kts | 166° |
| 2026-05-07 10:57 | -8.26099 | 129.57834 | 34909 ft | 510 kts | 165° |
| 2026-05-07 10:57 | -8.32858 | 129.59880 | 34912 ft | 510 kts | 166° |
| 2026-05-07 10:58 | -8.39661 | 129.61941 | 34912 ft | 510 kts | 165° |
| 2026-05-07 10:58 | -8.46461 | 129.64002 | 34911 ft | 510 kts | 166° |
| 2026-05-07 10:59 | -8.53244 | 129.66092 | 34915 ft | 510 kts | 163° |
| 2026-05-07 10:59 | -8.59693 | 129.69004 | 34913 ft | 512 kts | 154° |
| 2026-05-07 11:00 | -8.65975 | 129.72397 | 34909 ft | 512 kts | 153° |
| 2026-05-07 11:00 | -8.72273 | 129.75794 | 34906 ft | 512 kts | 154° |
| 2026-05-07 11:01 | -8.78589 | 129.79163 | 34909 ft | 512 kts | 154° |
| 2026-05-07 11:01 | -8.84900 | 129.82509 | 34918 ft | 512 kts | 154° |
| 2026-05-07 11:02 | -8.91180 | 129.85838 | 34914 ft | 512 kts | 154° |
| 2026-05-07 11:02 | -8.97492 | 129.89187 | 34915 ft | 513 kts | 154° |
| 2026-05-07 11:03 | -9.03820 | 129.92548 | 34920 ft | 513 kts | 154° |
| 2026-05-07 11:03 | -9.10142 | 129.95907 | 34919 ft | 513 kts | 154° |
| 2026-05-07 11:04 | -9.16466 | 129.99269 | 34920 ft | 513 kts | 154° |
| 2026-05-07 11:04 | -9.22793 | 130.02633 | 34924 ft | 513 kts | 154° |
| 2026-05-07 11:05 | -9.29077 | 130.05976 | 34920 ft | 513 kts | 154° |
| 2026-05-07 11:05 | -9.35403 | 130.09343 | 34926 ft | 513 kts | 154° |
| 2026-05-07 11:06 | -9.41739 | 130.12716 | 34927 ft | 514 kts | 154° |
| 2026-05-07 11:06 | -9.48064 | 130.16085 | 34924 ft | 514 kts | 154° |
| 2026-05-07 11:07 | -9.54368 | 130.19444 | 34931 ft | 514 kts | 154° |
| 2026-05-07 11:07 | -9.60711 | 130.22825 | 34927 ft | 515 kts | 154° |
| 2026-05-07 11:08 | -9.67060 | 130.26211 | 34927 ft | 515 kts | 154° |
| 2026-05-07 11:08 | -9.73379 | 130.29583 | 34934 ft | 515 kts | 154° |
| 2026-05-07 11:09 | -9.79742 | 130.32979 | 34928 ft | 515 kts | 154° |
| 2026-05-07 11:09 | -9.86045 | 130.36345 | 34933 ft | 516 kts | 154° |
| 2026-05-07 11:10 | -9.92394 | 130.39736 | 34937 ft | 516 kts | 154° |
| 2026-05-07 11:10 | -9.98746 | 130.43131 | 34939 ft | 516 kts | 154° |
| 2026-05-07 11:11 | -10.05100 | 130.46529 | 34941 ft | 516 kts | 154° |
| 2026-05-07 11:11 | -10.11467 | 130.49935 | 34939 ft | 517 kts | 154° |
| 2026-05-07 11:12 | -10.17835 | 130.53343 | 34940 ft | 517 kts | 154° |
| 2026-05-07 11:12 | -10.24170 | 130.56735 | 34938 ft | 517 kts | 154° |
| 2026-05-07 11:13 | -10.30543 | 130.60149 | 34943 ft | 517 kts | 154° |
| 2026-05-07 11:13 | -10.36907 | 130.63560 | 34950 ft | 518 kts | 154° |
| 2026-05-07 11:14 | -10.43285 | 130.66979 | 34944 ft | 518 kts | 154° |
| 2026-05-07 11:14 | -10.49656 | 130.70397 | 34946 ft | 518 kts | 154° |
| 2026-05-07 11:15 | -10.56040 | 130.73823 | 34946 ft | 518 kts | 154° |
| 2026-05-07 11:15 | -10.62365 | 130.77219 | 34953 ft | 517 kts | 154° |
| 2026-05-07 11:16 | -10.68735 | 130.80640 | 34948 ft | 517 kts | 154° |
| 2026-05-07 11:16 | -10.75100 | 130.84061 | 34947 ft | 517 kts | 154° |
| 2026-05-07 11:17 | -10.81464 | 130.87483 | 34948 ft | 517 kts | 154° |
| 2026-05-07 11:17 | -10.87814 | 130.90899 | 34953 ft | 516 kts | 155° |
| 2026-05-07 11:18 | -10.94174 | 130.94322 | 34946 ft | 517 kts | 155° |
| 2026-05-07 11:18 | -11.00494 | 130.97725 | 34949 ft | 517 kts | 155° |
| 2026-05-07 11:19 | -11.06851 | 131.01150 | 34951 ft | 517 kts | 155° |
| 2026-05-07 11:19 | -11.13220 | 131.04583 | 34952 ft | 517 kts | 155° |
| 2026-05-07 11:20 | -11.19590 | 131.08018 | 34952 ft | 518 kts | 155° |
| 2026-05-07 11:20 | -11.25965 | 131.11458 | 34948 ft | 518 kts | 155° |
| 2026-05-07 11:21 | -11.32298 | 131.14876 | 34949 ft | 518 kts | 155° |
| 2026-05-07 11:21 | -11.38680 | 131.18324 | 34956 ft | 519 kts | 155° |
| 2026-05-07 11:22 | -11.45062 | 131.21771 | 34947 ft | 519 kts | 155° |
| 2026-05-07 11:22 | -11.51448 | 131.25224 | 34951 ft | 519 kts | 155° |
| 2026-05-07 11:23 | -11.57835 | 131.28679 | 34947 ft | 519 kts | 155° |
| 2026-05-07 11:23 | -11.64224 | 131.32138 | 34952 ft | 520 kts | 155° |
| 2026-05-07 11:24 | -11.70617 | 131.35598 | 34939 ft | 520 kts | 155° |
| 2026-05-07 11:24 | -11.76971 | 131.39040 | 34948 ft | 520 kts | 155° |
| 2026-05-07 11:25 | -11.83367 | 131.42508 | 34951 ft | 520 kts | 155° |
| 2026-05-07 11:25 | -11.89773 | 131.45983 | 34949 ft | 521 kts | 155° |
| 2026-05-07 11:26 | -11.96145 | 131.49440 | 34949 ft | 521 kts | 155° |
| 2026-05-07 11:26 | -12.02552 | 131.52918 | 34949 ft | 522 kts | 155° |
| 2026-05-07 11:27 | -12.08966 | 131.56403 | 34948 ft | 522 kts | 155° |
| 2026-05-07 11:27 | -12.15402 | 131.59901 | 34957 ft | 522 kts | 155° |
| 2026-05-07 11:28 | -12.21824 | 131.63394 | 34953 ft | 523 kts | 155° |
| 2026-05-07 11:28 | -12.28250 | 131.66891 | 34956 ft | 523 kts | 155° |
| 2026-05-07 11:29 | -12.34629 | 131.70364 | 34957 ft | 522 kts | 155° |
| 2026-05-07 11:29 | -12.41045 | 131.73859 | 34962 ft | 522 kts | 156° |
| 2026-05-07 11:30 | -12.47443 | 131.77347 | 34958 ft | 520 kts | 156° |
| 2026-05-07 11:30 | -12.53833 | 131.80831 | 34955 ft | 520 kts | 156° |
| 2026-05-07 11:31 | -12.60226 | 131.84319 | 34977 ft | 520 kts | 156° |
| 2026-05-07 11:31 | -12.65529 | 131.87214 | 34973 ft | 520 kts | 156° |
| 2026-05-07 11:32 | -12.75115 | 131.92451 | 34974 ft | 519 kts | 156° |
| 2026-05-07 11:33 | -12.81454 | 131.95917 | 34975 ft | 519 kts | 156° |
| 2026-05-07 11:33 | -12.87828 | 131.99403 | 34976 ft | 519 kts | 156° |
| 2026-05-07 11:34 | -12.94205 | 132.02893 | 34981 ft | 520 kts | 156° |
| 2026-05-07 11:34 | -13.00588 | 132.06389 | 34980 ft | 520 kts | 156° |
| 2026-05-07 11:35 | -13.06974 | 132.09889 | 34981 ft | 520 kts | 156° |
| 2026-05-07 11:35 | -13.13328 | 132.13373 | 34989 ft | 521 kts | 156° |
| 2026-05-07 11:36 | -13.19720 | 132.16879 | 34984 ft | 521 kts | 156° |
| 2026-05-07 11:36 | -13.26120 | 132.20392 | 34984 ft | 521 kts | 156° |
| 2026-05-07 11:37 | -13.32525 | 132.23910 | 34990 ft | 522 kts | 156° |
| 2026-05-07 11:37 | -13.38933 | 132.27431 | 34999 ft | 522 kts | 156° |
| 2026-05-07 11:38 | -13.45345 | 132.30959 | 34998 ft | 523 kts | 156° |
| 2026-05-07 11:38 | -13.51762 | 132.34491 | 34999 ft | 523 kts | 156° |
| 2026-05-07 11:39 | -13.58142 | 132.38003 | 35008 ft | 523 kts | 156° |
| 2026-05-07 11:39 | -13.64562 | 132.41540 | 35002 ft | 523 kts | 156° |
| 2026-05-07 11:40 | -13.70978 | 132.45078 | 35012 ft | 523 kts | 156° |
| 2026-05-07 11:40 | -13.77401 | 132.48621 | 35013 ft | 523 kts | 156° |
| 2026-05-07 11:41 | -13.83822 | 132.52166 | 35031 ft | 524 kts | 157° |
| 2026-05-07 11:41 | -13.90206 | 132.55691 | 35020 ft | 524 kts | 157° |
| 2026-05-07 11:42 | -13.96641 | 132.59249 | 35008 ft | 524 kts | 157° |
| 2026-05-07 11:42 | -14.03064 | 132.62801 | 35024 ft | 524 kts | 156° |
| 2026-05-07 11:43 | -14.09487 | 132.66355 | 35036 ft | 524 kts | 157° |
| 2026-05-07 11:43 | -14.15925 | 132.69920 | 35019 ft | 525 kts | 157° |
| 2026-05-07 11:44 | -14.22352 | 132.73481 | 35029 ft | 525 kts | 157° |
| 2026-05-07 11:44 | -14.28797 | 132.77054 | 35040 ft | 525 kts | 157° |
| 2026-05-07 11:45 | -14.35186 | 132.80601 | 35028 ft | 525 kts | 158° |
| 2026-05-07 11:45 | -14.41611 | 132.84168 | 35027 ft | 524 kts | 158° |
| 2026-05-07 11:46 | -14.48038 | 132.87739 | 35029 ft | 524 kts | 158° |
| 2026-05-07 11:46 | -14.54453 | 132.91306 | 35041 ft | 524 kts | 158° |
| 2026-05-07 11:47 | -14.60874 | 132.94878 | 35032 ft | 523 kts | 158° |
| 2026-05-07 11:47 | -14.67239 | 132.98421 | 35031 ft | 523 kts | 158° |
| 2026-05-07 11:48 | -14.73642 | 133.01988 | 35031 ft | 523 kts | 158° |
| 2026-05-07 11:48 | -14.80051 | 133.05561 | 35036 ft | 523 kts | 158° |
| 2026-05-07 11:49 | -14.86450 | 133.09130 | 35034 ft | 523 kts | 158° |
| 2026-05-07 11:49 | -14.92855 | 133.12707 | 35032 ft | 523 kts | 158° |
| 2026-05-07 11:50 | -14.99258 | 133.16284 | 35053 ft | 523 kts | 159° |
| 2026-05-07 11:50 | -15.05684 | 133.19831 | 35039 ft | 523 kts | 159° |
| 2026-05-07 11:51 | -15.12079 | 133.23309 | 35030 ft | 523 kts | 159° |
| 2026-05-07 11:51 | -15.18521 | 133.26817 | 35035 ft | 523 kts | 159° |
| 2026-05-07 11:52 | -15.24963 | 133.30337 | 35050 ft | 524 kts | 159° |
| 2026-05-07 11:52 | -15.31414 | 133.33869 | 35040 ft | 524 kts | 159° |
| 2026-05-07 11:53 | -15.37867 | 133.37406 | 35039 ft | 524 kts | 159° |
| 2026-05-07 11:53 | -15.44283 | 133.40925 | 35066 ft | 524 kts | 160° |
| 2026-05-07 11:54 | -15.50749 | 133.44473 | 35045 ft | 526 kts | 159° |
| 2026-05-07 11:54 | -15.57228 | 133.48029 | 35051 ft | 527 kts | 159° |
| 2026-05-07 11:55 | -15.63714 | 133.51593 | 35048 ft | 528 kts | 159° |
| 2026-05-07 11:55 | -15.70164 | 133.55140 | 35060 ft | 529 kts | 159° |
| 2026-05-07 11:56 | -15.76682 | 133.58727 | 35061 ft | 529 kts | 159° |
| 2026-05-07 11:56 | -15.83196 | 133.62314 | 35059 ft | 530 kts | 159° |
| 2026-05-07 11:57 | -15.89707 | 133.65903 | 35060 ft | 530 kts | 159° |
| 2026-05-07 11:57 | -15.96198 | 133.69482 | 35062 ft | 530 kts | 159° |
| 2026-05-07 11:58 | -16.02717 | 133.73080 | 35062 ft | 530 kts | 159° |
| 2026-05-07 11:58 | -16.09238 | 133.76682 | 35064 ft | 530 kts | 159° |
| 2026-05-07 11:59 | -16.15756 | 133.80284 | 35069 ft | 531 kts | 159° |
| 2026-05-07 11:59 | -16.22296 | 133.83901 | 35056 ft | 531 kts | 159° |
| 2026-05-07 12:00 | -16.28780 | 133.87491 | 35065 ft | 531 kts | 159° |
| 2026-05-07 12:00 | -16.35308 | 133.91107 | 35086 ft | 531 kts | 159° |
| 2026-05-07 12:01 | -16.41854 | 133.94736 | 35081 ft | 532 kts | 159° |
| 2026-05-07 12:01 | -16.48398 | 133.98367 | 35074 ft | 533 kts | 159° |
| 2026-05-07 12:02 | -16.54944 | 134.02002 | 35073 ft | 533 kts | 159° |
| 2026-05-07 12:02 | -16.61498 | 134.05643 | 35080 ft | 534 kts | 159° |
| 2026-05-07 12:03 | -16.68020 | 134.09270 | 35081 ft | 535 kts | 159° |
| 2026-05-07 12:03 | -16.74599 | 134.12932 | 35085 ft | 535 kts | 159° |
| 2026-05-07 12:04 | -16.81172 | 134.16593 | 35084 ft | 536 kts | 159° |
| 2026-05-07 12:04 | -16.87760 | 134.20266 | 35080 ft | 536 kts | 159° |
| 2026-05-07 12:05 | -16.94341 | 134.23937 | 35079 ft | 536 kts | 159° |
| 2026-05-07 12:05 | -17.00893 | 134.27596 | 35104 ft | 536 kts | 159° |
| 2026-05-07 12:06 | -17.07482 | 134.31277 | 35089 ft | 537 kts | 159° |
| 2026-05-07 12:06 | -17.14082 | 134.34968 | 35086 ft | 537 kts | 159° |
| 2026-05-07 12:07 | -17.20678 | 134.38660 | 35110 ft | 538 kts | 159° |
| 2026-05-07 12:07 | -17.27279 | 134.42357 | 35096 ft | 538 kts | 159° |
| 2026-05-07 12:08 | -17.33850 | 134.46041 | 35088 ft | 539 kts | 159° |
| 2026-05-07 12:08 | -17.40469 | 134.49755 | 35091 ft | 539 kts | 158° |
| 2026-05-07 12:09 | -17.47093 | 134.53474 | 35095 ft | 540 kts | 158° |
| 2026-05-07 12:09 | -17.53671 | 134.57171 | 35095 ft | 540 kts | 158° |
| 2026-05-07 12:10 | -17.60297 | 134.60898 | 35096 ft | 540 kts | 158° |
| 2026-05-07 12:10 | -17.66916 | 134.64624 | 35108 ft | 540 kts | 158° |
| 2026-05-07 12:11 | -17.73539 | 134.68356 | 35103 ft | 541 kts | 158° |
| 2026-05-07 12:11 | -17.80183 | 134.72102 | 35100 ft | 541 kts | 158° |
| 2026-05-07 12:12 | -17.86823 | 134.75850 | 35119 ft | 542 kts | 158° |
| 2026-05-07 12:12 | -17.93472 | 134.79607 | 35109 ft | 542 kts | 158° |
| 2026-05-07 12:13 | -18.00112 | 134.83362 | 35101 ft | 542 kts | 158° |
| 2026-05-07 12:13 | -18.06792 | 134.86948 | 35342 ft | 543 kts | 160° |
| 2026-05-07 12:13 | -18.10186 | 134.88691 | 35694 ft | 541 kts | 161° |
| 2026-05-07 12:14 | -18.13562 | 134.90417 | 36086 ft | 538 kts | 161° |
| 2026-05-07 12:14 | -18.16929 | 134.92145 | 36459 ft | 536 kts | 161° |
| 2026-05-07 12:14 | -18.20281 | 134.93876 | 36809 ft | 535 kts | 161° |
| 2026-05-07 12:14 | -18.23619 | 134.95608 | 37048 ft | 536 kts | 160° |
| 2026-05-07 12:15 | -18.26977 | 134.97356 | 37123 ft | 540 kts | 160° |
| 2026-05-07 12:15 | -18.33720 | 135.00881 | 37089 ft | 539 kts | 160° |
| 2026-05-07 12:16 | -18.40369 | 135.04369 | 37113 ft | 535 kts | 160° |
| 2026-05-07 12:16 | -18.47028 | 135.07857 | 37118 ft | 534 kts | 160° |
| 2026-05-07 12:17 | -18.53681 | 135.11342 | 37115 ft | 534 kts | 160° |
| 2026-05-07 12:17 | -18.60352 | 135.14839 | 37116 ft | 535 kts | 160° |
| 2026-05-07 12:18 | -18.66984 | 135.18319 | 37119 ft | 535 kts | 160° |
| 2026-05-07 12:18 | -18.73660 | 135.21827 | 37121 ft | 536 kts | 160° |
| 2026-05-07 12:19 | -18.80344 | 135.25342 | 37118 ft | 537 kts | 160° |
| 2026-05-07 12:19 | -18.87030 | 135.28861 | 37129 ft | 538 kts | 160° |
| 2026-05-07 12:20 | -18.93740 | 135.32397 | 37125 ft | 538 kts | 160° |
| 2026-05-07 12:20 | -19.00399 | 135.35909 | 37122 ft | 538 kts | 160° |
| 2026-05-07 12:21 | -19.07100 | 135.39446 | 37131 ft | 538 kts | 160° |
| 2026-05-07 12:21 | -19.13808 | 135.42989 | 37142 ft | 538 kts | 160° |
| 2026-05-07 12:22 | -19.20509 | 135.46533 | 37132 ft | 538 kts | 160° |
| 2026-05-07 12:22 | -19.27173 | 135.50059 | 37130 ft | 538 kts | 160° |
| 2026-05-07 12:23 | -19.33879 | 135.53611 | 37133 ft | 538 kts | 160° |
| 2026-05-07 12:23 | -19.39447 | 135.56564 | 37136 ft | 538 kts | 160° |
| 2026-05-07 12:24 | -19.46141 | 135.60116 | 37141 ft | 538 kts | 160° |
| 2026-05-07 12:24 | -19.52843 | 135.63675 | 37141 ft | 538 kts | 160° |
| 2026-05-07 12:25 | -19.59543 | 135.67236 | 37142 ft | 539 kts | 160° |
| 2026-05-07 12:25 | -19.66247 | 135.70804 | 37146 ft | 539 kts | 160° |
| 2026-05-07 12:26 | -19.72957 | 135.74378 | 37163 ft | 539 kts | 160° |
| 2026-05-07 12:26 | -19.79630 | 135.77935 | 37152 ft | 540 kts | 160° |
| 2026-05-07 12:27 | -19.86346 | 135.81519 | 37152 ft | 540 kts | 160° |
| 2026-05-07 12:27 | -19.93066 | 135.85109 | 37158 ft | 540 kts | 160° |
| 2026-05-07 12:28 | -19.99788 | 135.88702 | 37192 ft | 540 kts | 160° |
| 2026-05-07 12:28 | -20.06473 | 135.92280 | 37164 ft | 541 kts | 160° |
| 2026-05-07 12:29 | -20.13198 | 135.95882 | 37165 ft | 541 kts | 160° |
| 2026-05-07 12:29 | -20.19945 | 135.99500 | 37163 ft | 541 kts | 160° |
| 2026-05-07 12:30 | -20.26647 | 136.03097 | 37173 ft | 541 kts | 160° |
| 2026-05-07 12:30 | -20.33385 | 136.06716 | 37174 ft | 542 kts | 160° |
| 2026-05-07 12:31 | -20.40122 | 136.10339 | 37188 ft | 542 kts | 160° |
| 2026-05-07 12:31 | -20.46852 | 136.13962 | 37187 ft | 542 kts | 160° |
| 2026-05-07 12:32 | -20.53586 | 136.17591 | 37180 ft | 542 kts | 160° |
| 2026-05-07 12:32 | -20.60280 | 136.21201 | 37196 ft | 543 kts | 160° |
| 2026-05-07 12:33 | -20.70402 | 136.26667 | 37195 ft | 543 kts | 160° |
| 2026-05-07 12:33 | -20.77153 | 136.30318 | 37190 ft | 543 kts | 160° |
| 2026-05-07 12:34 | -20.83894 | 136.33967 | 37193 ft | 543 kts | 160° |
| 2026-05-07 12:34 | -20.90633 | 136.37619 | 37200 ft | 543 kts | 160° |
| 2026-05-07 12:35 | -20.97376 | 136.41276 | 37200 ft | 543 kts | 160° |
| 2026-05-07 12:35 | -21.04117 | 136.44935 | 37198 ft | 543 kts | 160° |
| 2026-05-07 12:36 | -21.10866 | 136.48604 | 37198 ft | 543 kts | 159° |
| 2026-05-07 12:36 | -21.17576 | 136.52255 | 37220 ft | 544 kts | 160° |
| 2026-05-07 12:37 | -21.24343 | 136.55940 | 37209 ft | 544 kts | 159° |
| 2026-05-07 12:37 | -21.31126 | 136.59525 | 37206 ft | 543 kts | 161° |
| 2026-05-07 12:38 | -21.37993 | 136.62904 | 37208 ft | 542 kts | 162° |
| 2026-05-07 12:38 | -21.44816 | 136.66242 | 37247 ft | 542 kts | 162° |
| 2026-05-07 12:39 | -21.51678 | 136.69646 | 37217 ft | 543 kts | 162° |
| 2026-05-07 12:39 | -21.58533 | 136.73077 | 37217 ft | 543 kts | 162° |
| 2026-05-07 12:40 | -21.65380 | 136.76511 | 37218 ft | 543 kts | 162° |
| 2026-05-07 12:40 | -21.72187 | 136.79926 | 37218 ft | 543 kts | 162° |
| 2026-05-07 12:41 | -21.79041 | 136.83364 | 37235 ft | 544 kts | 162° |
| 2026-05-07 12:41 | -21.85901 | 136.86809 | 37226 ft | 544 kts | 161° |
| 2026-05-07 12:42 | -21.92770 | 136.90263 | 37227 ft | 544 kts | 161° |
| 2026-05-07 12:42 | -21.99628 | 136.93715 | 37233 ft | 544 kts | 161° |
| 2026-05-07 12:43 | -22.06451 | 136.97153 | 37231 ft | 545 kts | 161° |
| 2026-05-07 12:43 | -22.13315 | 137.00615 | 37233 ft | 545 kts | 161° |
| 2026-05-07 12:44 | -22.20186 | 137.04085 | 37236 ft | 545 kts | 161° |
| 2026-05-07 12:44 | -22.27048 | 137.07554 | 37238 ft | 545 kts | 161° |
| 2026-05-07 12:45 | -22.33925 | 137.11034 | 37247 ft | 546 kts | 161° |
| 2026-05-07 12:45 | -22.40777 | 137.14505 | 37240 ft | 546 kts | 161° |
| 2026-05-07 12:46 | -22.47646 | 137.17989 | 37243 ft | 545 kts | 161° |
| 2026-05-07 12:46 | -22.54520 | 137.21480 | 37245 ft | 545 kts | 161° |
| 2026-05-07 12:47 | -22.61388 | 137.24971 | 37262 ft | 545 kts | 161° |
| 2026-05-07 12:47 | -22.68264 | 137.28469 | 37256 ft | 546 kts | 161° |
| 2026-05-07 12:48 | -22.75136 | 137.31970 | 37243 ft | 546 kts | 161° |
| 2026-05-07 12:48 | -22.82013 | 137.35478 | 37255 ft | 545 kts | 161° |
| 2026-05-07 12:49 | -22.88837 | 137.38962 | 37291 ft | 545 kts | 161° |
| 2026-05-07 12:49 | -22.95713 | 137.42476 | 37259 ft | 546 kts | 161° |
| 2026-05-07 12:50 | -23.02584 | 137.45992 | 37257 ft | 546 kts | 161° |
| 2026-05-07 12:50 | -23.09473 | 137.49522 | 37259 ft | 546 kts | 161° |
| 2026-05-07 12:51 | -23.16303 | 137.53025 | 37292 ft | 546 kts | 161° |
| 2026-05-07 12:51 | -23.23188 | 137.56560 | 37267 ft | 547 kts | 161° |
| 2026-05-07 12:52 | -23.30090 | 137.60108 | 37256 ft | 547 kts | 161° |
| 2026-05-07 12:52 | -23.36929 | 137.63628 | 37263 ft | 547 kts | 161° |
| 2026-05-07 12:53 | -23.43817 | 137.67177 | 37263 ft | 547 kts | 161° |
| 2026-05-07 12:53 | -23.50696 | 137.70726 | 37270 ft | 547 kts | 161° |
| 2026-05-07 12:54 | -23.57543 | 137.74263 | 37264 ft | 547 kts | 161° |
| 2026-05-07 12:54 | -23.64426 | 137.77822 | 37267 ft | 547 kts | 161° |
| 2026-05-07 12:55 | -23.71317 | 137.81390 | 37274 ft | 547 kts | 161° |
| 2026-05-07 12:55 | -23.78211 | 137.84919 | 37267 ft | 546 kts | 162° |
| 2026-05-07 12:56 | -23.85169 | 137.88237 | 37273 ft | 544 kts | 163° |
| 2026-05-07 12:56 | -23.92091 | 137.91479 | 37270 ft | 544 kts | 163° |
| 2026-05-07 12:57 | -23.99053 | 137.94777 | 37270 ft | 545 kts | 163° |
| 2026-05-07 12:57 | -24.06014 | 137.98108 | 37284 ft | 545 kts | 163° |
| 2026-05-07 12:58 | -24.12927 | 138.01429 | 37280 ft | 546 kts | 163° |
| 2026-05-07 12:58 | -24.19892 | 138.04774 | 37274 ft | 546 kts | 163° |
| 2026-05-07 12:59 | -24.26861 | 138.08124 | 37281 ft | 546 kts | 163° |
| 2026-05-07 12:59 | -24.33786 | 138.11456 | 37282 ft | 546 kts | 163° |
| 2026-05-07 13:00 | -24.40751 | 138.14811 | 37292 ft | 546 kts | 163° |
| 2026-05-07 13:00 | -24.47710 | 138.18167 | 37285 ft | 545 kts | 163° |
| 2026-05-07 13:01 | -24.54655 | 138.21522 | 37292 ft | 545 kts | 163° |
| 2026-05-07 13:01 | -24.61597 | 138.24878 | 37308 ft | 545 kts | 163° |
| 2026-05-07 13:02 | -24.68499 | 138.28219 | 37291 ft | 545 kts | 163° |
| 2026-05-07 13:02 | -24.75439 | 138.31583 | 37288 ft | 545 kts | 163° |
| 2026-05-07 13:03 | -24.82375 | 138.34949 | 37294 ft | 544 kts | 163° |
| 2026-05-07 13:03 | -24.89312 | 138.38320 | 37309 ft | 544 kts | 162° |
| 2026-05-07 13:04 | -24.96247 | 138.41694 | 37298 ft | 544 kts | 162° |
| 2026-05-07 13:04 | -25.03130 | 138.45046 | 37303 ft | 543 kts | 162° |
| 2026-05-07 13:05 | -25.10061 | 138.48426 | 37303 ft | 543 kts | 162° |
| 2026-05-07 13:05 | -25.16976 | 138.51802 | 37327 ft | 543 kts | 162° |
| 2026-05-07 13:06 | -25.23888 | 138.55181 | 37307 ft | 543 kts | 162° |
| 2026-05-07 13:06 | -25.30761 | 138.58546 | 37311 ft | 542 kts | 162° |
| 2026-05-07 13:07 | -25.37659 | 138.61927 | 37314 ft | 542 kts | 162° |
| 2026-05-07 13:07 | -25.44547 | 138.65307 | 37345 ft | 541 kts | 162° |
| 2026-05-07 13:08 | -25.51398 | 138.68673 | 37323 ft | 541 kts | 162° |
| 2026-05-07 13:08 | -25.58289 | 138.72063 | 37318 ft | 541 kts | 162° |
| 2026-05-07 13:09 | -25.65160 | 138.75448 | 37325 ft | 540 kts | 162° |
| 2026-05-07 13:09 | -25.72033 | 138.78838 | 37356 ft | 540 kts | 162° |
| 2026-05-07 13:10 | -25.78893 | 138.82225 | 37335 ft | 539 kts | 162° |
| 2026-05-07 13:10 | -25.85697 | 138.85590 | 37331 ft | 538 kts | 162° |
| 2026-05-07 13:11 | -25.92533 | 138.88974 | 37327 ft | 538 kts | 162° |
| 2026-05-07 13:11 | -25.99370 | 138.92363 | 37356 ft | 538 kts | 162° |
| 2026-05-07 13:12 | -26.06201 | 138.95754 | 37352 ft | 537 kts | 162° |
| 2026-05-07 13:12 | -26.11883 | 138.98577 | 37345 ft | 537 kts | 162° |
| 2026-05-07 13:13 | -26.18708 | 139.01973 | 37347 ft | 537 kts | 162° |
| 2026-05-07 13:13 | -26.25540 | 139.05376 | 37348 ft | 536 kts | 162° |
| 2026-05-07 13:14 | -26.32317 | 139.08757 | 37350 ft | 536 kts | 161° |
| 2026-05-07 13:14 | -26.39124 | 139.12157 | 37345 ft | 535 kts | 162° |
| 2026-05-07 13:15 | -26.45921 | 139.15556 | 37347 ft | 535 kts | 161° |
| 2026-05-07 13:15 | -26.52711 | 139.18956 | 37356 ft | 534 kts | 161° |
| 2026-05-07 13:16 | -26.59497 | 139.22360 | 37356 ft | 534 kts | 161° |
| 2026-05-07 13:16 | -26.66280 | 139.25765 | 37361 ft | 534 kts | 161° |
| 2026-05-07 13:17 | -26.73025 | 139.29157 | 37358 ft | 534 kts | 161° |
| 2026-05-07 13:17 | -26.79887 | 139.32334 | 37359 ft | 532 kts | 165° |
| 2026-05-07 13:18 | -26.86796 | 139.35291 | 37366 ft | 532 kts | 165° |
| 2026-05-07 13:18 | -26.93713 | 139.38244 | 37364 ft | 532 kts | 165° |
| 2026-05-07 13:19 | -27.00617 | 139.41233 | 37364 ft | 531 kts | 165° |
| 2026-05-07 13:19 | -27.07507 | 139.44240 | 37367 ft | 531 kts | 165° |
| 2026-05-07 13:20 | -27.14389 | 139.47252 | 37377 ft | 530 kts | 164° |
| 2026-05-07 13:20 | -27.21262 | 139.50261 | 37376 ft | 529 kts | 164° |
| 2026-05-07 13:21 | -27.28068 | 139.53242 | 37370 ft | 528 kts | 165° |
| 2026-05-07 13:21 | -27.34911 | 139.56243 | 37372 ft | 527 kts | 165° |
| 2026-05-07 13:22 | -27.41761 | 139.59251 | 37384 ft | 526 kts | 164° |
| 2026-05-07 13:22 | -27.48545 | 139.62234 | 37384 ft | 525 kts | 164° |
| 2026-05-07 13:23 | -27.55357 | 139.65234 | 37382 ft | 525 kts | 164° |
| 2026-05-07 13:23 | -27.62168 | 139.68237 | 37378 ft | 524 kts | 164° |
| 2026-05-07 13:24 | -27.68920 | 139.71218 | 37403 ft | 524 kts | 164° |
| 2026-05-07 13:24 | -27.75707 | 139.74218 | 37386 ft | 523 kts | 164° |
| 2026-05-07 13:25 | -27.82486 | 139.77220 | 37395 ft | 523 kts | 164° |
| 2026-05-07 13:25 | -27.89259 | 139.80222 | 37393 ft | 523 kts | 164° |
| 2026-05-07 13:26 | -27.96033 | 139.83229 | 37404 ft | 523 kts | 164° |
| 2026-05-07 13:26 | -28.02807 | 139.86240 | 37397 ft | 522 kts | 164° |
| 2026-05-07 13:27 | -28.09572 | 139.89251 | 37397 ft | 522 kts | 164° |
| 2026-05-07 13:27 | -28.16326 | 139.92262 | 37404 ft | 521 kts | 164° |
| 2026-05-07 13:28 | -28.23033 | 139.95255 | 37405 ft | 521 kts | 163° |
| 2026-05-07 13:28 | -28.29785 | 139.98273 | 37401 ft | 520 kts | 163° |
| 2026-05-07 13:29 | -28.36526 | 140.01290 | 37405 ft | 520 kts | 163° |
| 2026-05-07 13:29 | -28.43250 | 140.04303 | 37409 ft | 519 kts | 163° |
| 2026-05-07 13:30 | -28.49971 | 140.07319 | 37419 ft | 519 kts | 163° |
| 2026-05-07 13:30 | -28.56640 | 140.10315 | 37409 ft | 518 kts | 163° |
| 2026-05-07 13:31 | -28.63347 | 140.13334 | 37413 ft | 517 kts | 163° |
| 2026-05-07 13:31 | -28.70043 | 140.16351 | 37411 ft | 517 kts | 163° |
| 2026-05-07 13:32 | -28.76733 | 140.19369 | 37416 ft | 517 kts | 163° |
| 2026-05-07 13:32 | -28.83424 | 140.22393 | 37414 ft | 517 kts | 163° |
| 2026-05-07 13:33 | -28.90115 | 140.25420 | 37414 ft | 516 kts | 163° |
| 2026-05-07 13:33 | -28.96791 | 140.28445 | 37412 ft | 516 kts | 163° |
| 2026-05-07 13:34 | -29.06759 | 140.32970 | 37418 ft | 516 kts | 163° |
| 2026-05-07 13:35 | -29.13429 | 140.36003 | 37418 ft | 515 kts | 163° |
| 2026-05-07 13:35 | -29.20094 | 140.39038 | 37423 ft | 515 kts | 163° |
| 2026-05-07 13:36 | -29.26746 | 140.42071 | 37424 ft | 514 kts | 163° |
| 2026-05-07 13:36 | -29.33394 | 140.45106 | 37427 ft | 514 kts | 163° |
| 2026-05-07 13:37 | -29.39997 | 140.48125 | 37428 ft | 514 kts | 163° |
| 2026-05-07 13:37 | -29.46652 | 140.51172 | 37427 ft | 514 kts | 163° |
| 2026-05-07 13:38 | -29.53310 | 140.54225 | 37444 ft | 515 kts | 163° |
| 2026-05-07 13:38 | -29.59967 | 140.57282 | 37427 ft | 514 kts | 163° |
| 2026-05-07 13:39 | -29.66563 | 140.60316 | 37432 ft | 513 kts | 163° |
| 2026-05-07 13:39 | -29.73196 | 140.63370 | 37431 ft | 513 kts | 163° |
| 2026-05-07 13:40 | -29.79815 | 140.66423 | 37450 ft | 512 kts | 163° |
| 2026-05-07 13:40 | -29.86431 | 140.69478 | 37439 ft | 511 kts | 163° |
| 2026-05-07 13:41 | -29.93031 | 140.72530 | 37433 ft | 510 kts | 163° |
| 2026-05-07 13:41 | -29.99618 | 140.75581 | 37440 ft | 509 kts | 163° |
| 2026-05-07 13:42 | -30.06166 | 140.78618 | 37455 ft | 509 kts | 163° |
| 2026-05-07 13:42 | -30.12736 | 140.81670 | 37441 ft | 508 kts | 162° |
| 2026-05-07 13:43 | -30.19294 | 140.84720 | 37444 ft | 508 kts | 162° |
| 2026-05-07 13:43 | -30.25847 | 140.87772 | 37442 ft | 507 kts | 162° |
| 2026-05-07 13:44 | -30.32390 | 140.90825 | 37451 ft | 507 kts | 162° |
| 2026-05-07 13:44 | -30.38926 | 140.93878 | 37446 ft | 506 kts | 162° |
| 2026-05-07 13:45 | -30.45419 | 140.96916 | 37435 ft | 505 kts | 162° |
| 2026-05-07 13:45 | -30.51945 | 140.99973 | 37437 ft | 504 kts | 162° |
| 2026-05-07 13:46 | -30.58452 | 141.03026 | 37464 ft | 504 kts | 162° |
| 2026-05-07 13:46 | -30.64944 | 141.06077 | 37444 ft | 503 kts | 162° |
| 2026-05-07 13:47 | -30.71436 | 141.09132 | 37441 ft | 502 kts | 162° |
| 2026-05-07 13:47 | -30.77905 | 141.12181 | 37446 ft | 501 kts | 162° |
| 2026-05-07 13:48 | -30.84379 | 141.15236 | 37454 ft | 501 kts | 162° |
| 2026-05-07 13:48 | -30.90789 | 141.18266 | 37452 ft | 500 kts | 162° |
| 2026-05-07 13:49 | -30.97234 | 141.21317 | 37451 ft | 499 kts | 162° |
| 2026-05-07 13:49 | -31.03677 | 141.24370 | 37447 ft | 499 kts | 162° |
| 2026-05-07 13:50 | -31.10086 | 141.27488 | 37450 ft | 499 kts | 161° |
| 2026-05-07 13:50 | -31.16456 | 141.30708 | 37453 ft | 499 kts | 161° |
| 2026-05-07 13:51 | -31.22824 | 141.33938 | 37448 ft | 498 kts | 161° |
| 2026-05-07 13:51 | -31.29141 | 141.37128 | 37454 ft | 497 kts | 161° |
| 2026-05-07 13:52 | -31.35493 | 141.40331 | 37452 ft | 497 kts | 161° |
| 2026-05-07 13:52 | -31.41843 | 141.43536 | 37457 ft | 496 kts | 161° |
| 2026-05-07 13:53 | -31.48185 | 141.46742 | 37448 ft | 495 kts | 160° |
| 2026-05-07 13:53 | -31.54481 | 141.49931 | 37452 ft | 495 kts | 160° |
| 2026-05-07 13:54 | -31.60799 | 141.53136 | 37452 ft | 494 kts | 160° |
| 2026-05-07 13:54 | -31.67110 | 141.56342 | 37461 ft | 494 kts | 160° |
| 2026-05-07 13:55 | -31.73409 | 141.59546 | 37451 ft | 493 kts | 160° |
| 2026-05-07 13:55 | -31.79700 | 141.62752 | 37447 ft | 492 kts | 160° |
| 2026-05-07 13:56 | -31.85975 | 141.65953 | 37449 ft | 491 kts | 160° |
| 2026-05-07 13:56 | -31.92252 | 141.69161 | 37447 ft | 490 kts | 160° |
| 2026-05-07 13:57 | -31.98471 | 141.72344 | 37444 ft | 490 kts | 160° |
| 2026-05-07 13:57 | -32.04731 | 141.75552 | 37442 ft | 490 kts | 160° |
| 2026-05-07 13:58 | -32.11000 | 141.78770 | 37440 ft | 491 kts | 160° |
| 2026-05-07 13:58 | -32.17270 | 141.81993 | 37452 ft | 491 kts | 160° |
| 2026-05-07 13:59 | -32.23531 | 141.85217 | 37434 ft | 491 kts | 160° |
| 2026-05-07 13:59 | -32.29741 | 141.88420 | 37438 ft | 490 kts | 160° |
| 2026-05-07 14:00 | -32.35992 | 141.91648 | 37433 ft | 489 kts | 160° |
| 2026-05-07 14:00 | -32.41174 | 141.94327 | 37435 ft | 488 kts | 160° |
| 2026-05-07 14:01 | -32.47399 | 141.97551 | 37439 ft | 487 kts | 160° |
| 2026-05-07 14:01 | -32.53613 | 142.00774 | 37425 ft | 486 kts | 160° |
| 2026-05-07 14:02 | -32.59763 | 142.03969 | 37427 ft | 485 kts | 160° |
| 2026-05-07 14:02 | -32.65935 | 142.07179 | 37431 ft | 484 kts | 160° |
| 2026-05-07 14:03 | -32.72094 | 142.10388 | 37430 ft | 483 kts | 160° |
| 2026-05-07 14:03 | -32.78244 | 142.13596 | 37427 ft | 482 kts | 160° |
| 2026-05-07 14:04 | -32.84391 | 142.16809 | 37430 ft | 482 kts | 160° |
| 2026-05-07 14:04 | -32.90537 | 142.20025 | 37431 ft | 482 kts | 159° |
| 2026-05-07 14:05 | -32.96685 | 142.23248 | 37443 ft | 482 kts | 159° |
| 2026-05-07 14:05 | -33.02789 | 142.26452 | 37428 ft | 483 kts | 159° |
| 2026-05-07 14:06 | -33.08935 | 142.29684 | 37429 ft | 482 kts | 159° |
| 2026-05-07 14:06 | -33.15069 | 142.32915 | 37426 ft | 482 kts | 159° |
| 2026-05-07 14:07 | -33.21205 | 142.36151 | 37437 ft | 481 kts | 159° |
| 2026-05-07 14:07 | -33.27325 | 142.39385 | 37413 ft | 480 kts | 159° |
| 2026-05-07 14:08 | -33.33420 | 142.42591 | 37410 ft | 477 kts | 160° |
| 2026-05-07 14:08 | -33.39563 | 142.45590 | 37414 ft | 475 kts | 161° |
| 2026-05-07 14:09 | -33.45705 | 142.48513 | 37415 ft | 474 kts | 161° |
| 2026-05-07 14:09 | -33.51786 | 142.51437 | 37415 ft | 473 kts | 161° |
| 2026-05-07 14:10 | -33.57903 | 142.54407 | 37413 ft | 472 kts | 161° |
| 2026-05-07 14:10 | -33.63954 | 142.57357 | 37411 ft | 471 kts | 161° |
| 2026-05-07 14:11 | -33.70031 | 142.60323 | 37413 ft | 471 kts | 161° |
| 2026-05-07 14:11 | -33.76101 | 142.63290 | 37419 ft | 471 kts | 162° |
| 2026-05-07 14:12 | -33.82168 | 142.66260 | 37406 ft | 471 kts | 161° |
| 2026-05-07 14:12 | -33.88240 | 142.69237 | 37404 ft | 470 kts | 161° |
| 2026-05-07 14:13 | -33.94296 | 142.72209 | 37404 ft | 470 kts | 161° |
| 2026-05-07 14:13 | -34.00357 | 142.75190 | 37405 ft | 470 kts | 162° |
| 2026-05-07 14:14 | -34.06381 | 142.78157 | 37404 ft | 470 kts | 162° |
| 2026-05-07 14:14 | -34.12452 | 142.81151 | 37398 ft | 471 kts | 162° |
| 2026-05-07 14:15 | -34.18517 | 142.84147 | 37402 ft | 471 kts | 162° |
| 2026-05-07 14:15 | -34.24587 | 142.87151 | 37403 ft | 471 kts | 162° |
| 2026-05-07 14:16 | -34.30615 | 142.90138 | 37391 ft | 471 kts | 162° |
| 2026-05-07 14:16 | -34.36692 | 142.93154 | 37392 ft | 471 kts | 162° |
| 2026-05-07 14:17 | -34.42762 | 142.96171 | 37385 ft | 472 kts | 162° |
| 2026-05-07 14:17 | -34.48836 | 142.99196 | 37386 ft | 472 kts | 162° |
| 2026-05-07 14:18 | -34.54913 | 143.02227 | 37393 ft | 472 kts | 162° |
| 2026-05-07 14:18 | -34.60988 | 143.05261 | 37386 ft | 472 kts | 162° |
| 2026-05-07 14:19 | -34.67032 | 143.08284 | 37382 ft | 472 kts | 162° |
| 2026-05-07 14:19 | -34.73117 | 143.11333 | 37393 ft | 472 kts | 162° |
| 2026-05-07 14:20 | -34.79205 | 143.14389 | 37382 ft | 473 kts | 162° |
| 2026-05-07 14:20 | -34.85293 | 143.17450 | 37375 ft | 473 kts | 162° |
| 2026-05-07 14:21 | -34.91380 | 143.20515 | 37374 ft | 473 kts | 162° |
| 2026-05-07 14:21 | -34.97395 | 143.23679 | 37371 ft | 475 kts | 158° |
| 2026-05-07 14:22 | -35.03122 | 143.27833 | 37364 ft | 479 kts | 153° |
| 2026-05-07 14:22 | -35.08770 | 143.32169 | 37369 ft | 479 kts | 153° |
| 2026-05-07 14:23 | -35.14395 | 143.36459 | 37364 ft | 479 kts | 153° |
| 2026-05-07 14:23 | -35.20075 | 143.40757 | 37352 ft | 479 kts | 153° |
| 2026-05-07 14:24 | -35.25752 | 143.45047 | 37346 ft | 479 kts | 153° |
| 2026-05-07 14:24 | -35.31436 | 143.49351 | 37357 ft | 479 kts | 153° |
| 2026-05-07 14:25 | -35.37109 | 143.53656 | 37362 ft | 480 kts | 154° |
| 2026-05-07 14:25 | -35.42747 | 143.57941 | 37351 ft | 480 kts | 154° |
| 2026-05-07 14:26 | -35.48423 | 143.62263 | 37341 ft | 479 kts | 154° |
| 2026-05-07 14:26 | -35.54092 | 143.66588 | 37352 ft | 479 kts | 154° |
| 2026-05-07 14:27 | -35.59763 | 143.70921 | 37340 ft | 479 kts | 154° |
| 2026-05-07 14:27 | -35.65420 | 143.75250 | 37355 ft | 479 kts | 154° |
| 2026-05-07 14:28 | -35.71047 | 143.79565 | 37334 ft | 480 kts | 154° |
| 2026-05-07 14:28 | -35.76718 | 143.83920 | 37330 ft | 480 kts | 154° |
| 2026-05-07 14:29 | -35.82386 | 143.88279 | 37346 ft | 480 kts | 154° |
| 2026-05-07 14:29 | -35.88057 | 143.92651 | 37330 ft | 480 kts | 154° |
| 2026-05-07 14:30 | -35.93726 | 143.97031 | 37325 ft | 480 kts | 154° |
| 2026-05-07 14:30 | -35.99392 | 144.01417 | 37313 ft | 480 kts | 154° |
| 2026-05-07 14:30 | -36.02254 | 144.03631 | 36639 ft | 490 kts | 154° |
| 2026-05-07 14:31 | -36.05108 | 144.05841 | 35961 ft | 489 kts | 154° |
| 2026-05-07 14:31 | -36.07991 | 144.08080 | 35128 ft | 490 kts | 154° |
| 2026-05-07 14:31 | -36.10880 | 144.10327 | 34309 ft | 490 kts | 155° |
| 2026-05-07 14:31 | -36.13765 | 144.12573 | 33518 ft | 488 kts | 155° |
| 2026-05-07 14:32 | -36.16613 | 144.14797 | 32962 ft | 480 kts | 155° |
| 2026-05-07 14:32 | -36.19411 | 144.16985 | 32545 ft | 471 kts | 155° |
| 2026-05-07 14:32 | -36.22160 | 144.19135 | 32122 ft | 463 kts | 155° |
| 2026-05-07 14:32 | -36.24865 | 144.21247 | 31627 ft | 458 kts | 155° |
| 2026-05-07 14:33 | -36.27551 | 144.23343 | 31068 ft | 454 kts | 155° |
| 2026-05-07 14:33 | -36.30224 | 144.25429 | 30546 ft | 451 kts | 156° |
| 2026-05-07 14:33 | -36.32865 | 144.27493 | 29976 ft | 447 kts | 156° |
| 2026-05-07 14:33 | -36.35443 | 144.29510 | 29458 ft | 441 kts | 155° |
| 2026-05-07 14:34 | -36.38024 | 144.31533 | 29044 ft | 434 kts | 155° |
| 2026-05-07 14:34 | -36.40550 | 144.33517 | 28700 ft | 424 kts | 155° |
| 2026-05-07 14:34 | -36.43037 | 144.35469 | 27953 ft | 424 kts | 155° |
| 2026-05-07 14:34 | -36.45578 | 144.37452 | 26674 ft | 436 kts | 154° |
| 2026-05-07 14:35 | -36.48182 | 144.39484 | 25434 ft | 447 kts | 154° |
| 2026-05-07 14:35 | -36.50814 | 144.41550 | 24592 ft | 447 kts | 153° |
| 2026-05-07 14:35 | -36.53409 | 144.43598 | 23792 ft | 445 kts | 153° |
| 2026-05-07 14:35 | -36.56012 | 144.45655 | 22933 ft | 442 kts | 153° |
| 2026-05-07 14:36 | -36.58596 | 144.47700 | 22171 ft | 436 kts | 153° |
| 2026-05-07 14:36 | -36.61150 | 144.49719 | 21430 ft | 431 kts | 153° |
| 2026-05-07 14:36 | -36.63667 | 144.51710 | 20762 ft | 426 kts | 153° |
| 2026-05-07 14:36 | -36.66162 | 144.53683 | 20100 ft | 422 kts | 153° |
| 2026-05-07 14:37 | -36.68632 | 144.55635 | 19375 ft | 419 kts | 153° |
| 2026-05-07 14:37 | -36.73534 | 144.59513 | 17907 ft | 414 kts | 153° |
| 2026-05-07 14:37 | -36.75952 | 144.61431 | 17245 ft | 409 kts | 153° |
| 2026-05-07 14:38 | -36.78363 | 144.63265 | 16614 ft | 401 kts | 157° |
| 2026-05-07 14:38 | -36.80877 | 144.64680 | 15972 ft | 392 kts | 165° |
| 2026-05-07 14:38 | -36.83417 | 144.65730 | 15343 ft | 385 kts | 169° |
| 2026-05-07 14:38 | -36.86010 | 144.66444 | 14714 ft | 378 kts | 174° |
| 2026-05-07 14:39 | -36.88591 | 144.66999 | 14140 ft | 374 kts | 174° |
| 2026-05-07 14:39 | -36.91137 | 144.67543 | 13595 ft | 368 kts | 175° |
| 2026-05-07 14:39 | -36.93646 | 144.68085 | 13053 ft | 362 kts | 175° |
| 2026-05-07 14:39 | -36.96078 | 144.68614 | 12457 ft | 358 kts | 174° |
| 2026-05-07 14:40 | -36.98528 | 144.69150 | 11842 ft | 356 kts | 174° |
| 2026-05-07 14:40 | -37.00960 | 144.69685 | 11276 ft | 352 kts | 174° |
| 2026-05-07 14:40 | -37.03335 | 144.70212 | 11074 ft | 339 kts | 174° |
| 2026-05-07 14:40 | -37.05601 | 144.70718 | 10972 ft | 324 kts | 175° |
| 2026-05-07 14:41 | -37.07769 | 144.71201 | 10864 ft | 310 kts | 175° |
| 2026-05-07 14:41 | -37.09847 | 144.71662 | 10791 ft | 296 kts | 175° |
| 2026-05-07 14:41 | -37.11837 | 144.72104 | 10707 ft | 284 kts | 175° |
| 2026-05-07 14:41 | -37.13743 | 144.72528 | 10636 ft | 273 kts | 175° |
| 2026-05-07 14:42 | -37.15577 | 144.72935 | 10548 ft | 261 kts | 176° |
| 2026-05-07 14:42 | -37.17334 | 144.73334 | 10427 ft | 252 kts | 175° |
| 2026-05-07 14:42 | -37.19024 | 144.73771 | 10211 ft | 247 kts | 174° |
| 2026-05-07 14:42 | -37.20689 | 144.74212 | 9759 ft | 249 kts | 174° |
| 2026-05-07 14:43 | -37.22398 | 144.74665 | 9276 ft | 252 kts | 174° |
| 2026-05-07 14:43 | -37.24113 | 144.75120 | 8916 ft | 251 kts | 174° |
| 2026-05-07 14:43 | -37.25817 | 144.75572 | 8594 ft | 248 kts | 174° |
| 2026-05-07 14:43 | -37.27502 | 144.76017 | 8248 ft | 247 kts | 174° |
| 2026-05-07 14:44 | -37.29181 | 144.76461 | 7895 ft | 246 kts | 174° |
| 2026-05-07 14:44 | -37.30851 | 144.76902 | 7574 ft | 243 kts | 174° |
| 2026-05-07 14:44 | -37.32484 | 144.77336 | 7358 ft | 237 kts | 174° |
| 2026-05-07 14:44 | -37.34075 | 144.77715 | 7139 ft | 229 kts | 178° |
| 2026-05-07 14:45 | -37.35632 | 144.77985 | 6910 ft | 222 kts | 179° |
| 2026-05-07 14:45 | -37.37164 | 144.78243 | 6473 ft | 224 kts | 178° |
| 2026-05-07 14:45 | -37.38711 | 144.78507 | 6072 ft | 223 kts | 178° |
| 2026-05-07 14:45 | -37.40225 | 144.78771 | 5763 ft | 220 kts | 179° |
| 2026-05-07 14:46 | -37.41725 | 144.79033 | 5519 ft | 214 kts | 179° |
| 2026-05-07 14:46 | -37.43186 | 144.79291 | 5261 ft | 210 kts | 179° |
| 2026-05-07 14:46 | -37.44627 | 144.79545 | 4955 ft | 209 kts | 179° |
| 2026-05-07 14:46 | -37.46067 | 144.79798 | 4603 ft | 209 kts | 179° |
| 2026-05-07 14:47 | -37.47503 | 144.80072 | 4289 ft | 206 kts | 179° |
| 2026-05-07 14:47 | -37.48905 | 144.80352 | 3906 ft | 203 kts | 179° |
| 2026-05-07 14:47 | -37.50301 | 144.80664 | 3506 ft | 201 kts | 178° |
| 2026-05-07 14:47 | -37.51661 | 144.80942 | 3199 ft | 195 kts | 180° |
| 2026-05-07 14:48 | -37.52981 | 144.81192 | 2919 ft | 188 kts | 179° |
| 2026-05-07 14:48 | -37.54228 | 144.81427 | 2717 ft | 178 kts | 181° |
| 2026-05-07 14:48 | -37.55430 | 144.81652 | 2455 ft | 169 kts | 182° |
| 2026-05-07 14:48 | -37.56537 | 144.81859 | 2215 ft | 152 kts | 182° |
| 2026-05-07 14:49 | -37.57509 | 144.82042 | 2029 ft | 130 kts | 184° |
| 2026-05-07 14:49 | -37.58119 | 144.82148 | 1969 ft | 137 kts | 184° |
| 2026-05-07 14:49 | -37.59086 | 144.82327 | 1735 ft | 142 kts | 183° |
| 2026-05-07 14:49 | -37.60056 | 144.82511 | 1548 ft | 142 kts | 181° |
| 2026-05-07 14:50 | -37.61049 | 144.82694 | 1324 ft | 144 kts | 180° |
| 2026-05-07 14:50 | -37.62034 | 144.82878 | 1147 ft | 147 kts | 179° |
| 2026-05-07 14:50 | -37.62971 | 144.83054 | 934 ft | 146 kts | 178° |
| 2026-05-07 14:50 | -37.63993 | 144.83246 | 728 ft | 150 kts | 175° |
| 2026-05-07 14:51 | -37.65017 | 144.83445 | 584 ft | 147 kts | 179° |
| 2026-05-07 14:51 | -37.66031 | 144.83626 | 425 ft | 142 kts | 176° |
| 2026-05-07 14:51 | -37.66897 | 144.83779 | 395 ft | 103 kts | 172° |
| 2026-05-07 14:51 | -37.67422 | 144.83882 | 376 ft | 55 kts | 172° |
| 2026-05-07 14:52 | -37.67786 | 144.83955 | 364 ft | 47 kts | 166° |
| 2026-05-07 14:52 | -37.67831 | 144.84170 | 368 ft | 27 kts | 30° |
| 2026-05-07 14:52 | -37.67658 | 144.84148 | 373 ft | 26 kts | 349° |
| 2026-05-07 14:52 | -37.67481 | 144.84111 | 376 ft | 26 kts | 350° |
| 2026-05-07 14:53 | -37.67304 | 144.84074 | 381 ft | 26 kts | 352° |
| 2026-05-07 14:53 | -37.67127 | 144.84056 | 386 ft | 25 kts | 15° |
| 2026-05-07 14:53 | -37.67080 | 144.84141 | 388 ft | 9 kts | 76° |
| 2026-05-07 14:53 | -37.67056 | 144.84215 | 389 ft | 9 kts | 48° |
| 2026-05-07 14:54 | -37.66995 | 144.84229 | 391 ft | 9 kts | 356° |
| 2026-05-07 14:54 | -37.66931 | 144.84221 | 392 ft | 9 kts | 3° |
| 2026-05-07 14:54 | -37.66908 | 144.84253 | 393 ft | 5 kts | 84° |
| 2026-05-07 14:54 | -37.66904 | 144.84294 | 390 ft | 5 kts | 82° |
| 2026-05-07 14:55 | -37.66900 | 144.84335 | 392 ft | 4 kts | 82° |
| 2026-05-07 14:55 | -37.66900 | 144.84337 | 392 ft | 0 kts | 82° |
| 2026-05-07 14:55 | -37.66899 | 144.84341 | 392 ft | 0 kts | 82° |